<?xml version="1.0" encoding="UTF-8" standalone="no" ?>
<gpx xmlns="http://www.topografix.com/GPX/1/1" xmlns:xsi="http://www.w3.org/2001/XMLSchema-instance" xsi:schemaLocation="http://www.topografix.com/GPX/1/1 http://www.topografix.com/GPX/1/1/gpx.xsd" version="1.1" creator="VisuGPX - https://www.visugpx.com">
  <metadata>
    <name>RSPFY-Poteau-des-Bruyères-Moutiers</name>
    <desc><![CDATA[marche nordique dans le bois de Rochefort en partant du poteau de la Poterie passant par le poteau des Bruyères et la Fontaine Sainte-Anne.]]></desc>
  </metadata>
  <trk>
    <name><![CDATA[2025-10-02 09:05]]></name>
    <desc><![CDATA[<p>Heure de départ: 09:06 2 oct. 2025<br/>Heure d'arrivée: 11:35 2 oct. 2025<br/>Distance: 11,7 km (02:29)<br/>Temps déplacement: 02:15<br/>Vitesse moyenne: 4,71 km/h<br/>Vitesse moyenne mouv.: 5,18 km/h<br/>Vitesse Max.: 7,57 km/h<br/>Altitude minimale: 83 m<br/>Altitude maximale: 168 m<br/>Vitesse de montée: 172,5 m/h<br/>Vitesse de descente: -177,7 m/h<br/>Gain d'altitude: 209 m<br/>Perte d'altitude: -214 m<br/>Temps de montée: 01:12<br/>Temps de descente: 01:12<br/></p><hr align="center" width="480" style="height: 2px; width: 517px"/>]]></desc>
    <trkseg>
      <trkpt lat="48.6068" lon="1.94971">
        <ele>111</ele>
        <time>2025-10-02T07:06:00Z</time>
      </trkpt>
      <trkpt lat="48.60683" lon="1.94957">
        <ele>111</ele>
        <time>2025-10-02T07:10:03Z</time>
      </trkpt>
      <trkpt lat="48.60691" lon="1.9495">
        <ele>111</ele>
        <time>2025-10-02T07:13:21Z</time>
      </trkpt>
      <trkpt lat="48.60694" lon="1.94937">
        <ele>111.3</ele>
        <time>2025-10-02T07:13:32Z</time>
      </trkpt>
      <trkpt lat="48.60697" lon="1.94923">
        <ele>111.8</ele>
        <time>2025-10-02T07:13:45Z</time>
      </trkpt>
      <trkpt lat="48.60704" lon="1.94916">
        <ele>112</ele>
        <time>2025-10-02T07:13:58Z</time>
      </trkpt>
      <trkpt lat="48.60709" lon="1.94902">
        <ele>112</ele>
        <time>2025-10-02T07:14:06Z</time>
      </trkpt>
      <trkpt lat="48.60715" lon="1.94891">
        <ele>112</ele>
        <time>2025-10-02T07:14:14Z</time>
      </trkpt>
      <trkpt lat="48.6072" lon="1.94878">
        <ele>112.4</ele>
        <time>2025-10-02T07:14:22Z</time>
      </trkpt>
      <trkpt lat="48.60726" lon="1.94867">
        <ele>112.7</ele>
        <time>2025-10-02T07:14:30Z</time>
      </trkpt>
      <trkpt lat="48.60732" lon="1.94855">
        <ele>112.7</ele>
        <time>2025-10-02T07:14:38Z</time>
      </trkpt>
      <trkpt lat="48.60738" lon="1.94842">
        <ele>112.8</ele>
        <time>2025-10-02T07:14:46Z</time>
      </trkpt>
      <trkpt lat="48.60743" lon="1.94829">
        <ele>113</ele>
        <time>2025-10-02T07:14:53Z</time>
      </trkpt>
      <trkpt lat="48.60748" lon="1.94817">
        <ele>113</ele>
        <time>2025-10-02T07:15:00Z</time>
      </trkpt>
      <trkpt lat="48.60754" lon="1.94806">
        <ele>112.8</ele>
        <time>2025-10-02T07:15:07Z</time>
      </trkpt>
      <trkpt lat="48.6076" lon="1.94795">
        <ele>112.6</ele>
        <time>2025-10-02T07:15:14Z</time>
      </trkpt>
      <trkpt lat="48.60766" lon="1.94784">
        <ele>112.4</ele>
        <time>2025-10-02T07:15:21Z</time>
      </trkpt>
      <trkpt lat="48.60771" lon="1.94772">
        <ele>112.2</ele>
        <time>2025-10-02T07:15:28Z</time>
      </trkpt>
      <trkpt lat="48.60777" lon="1.9476">
        <ele>112</ele>
        <time>2025-10-02T07:15:35Z</time>
      </trkpt>
      <trkpt lat="48.60782" lon="1.94749">
        <ele>112.1</ele>
        <time>2025-10-02T07:15:42Z</time>
      </trkpt>
      <trkpt lat="48.60788" lon="1.94737">
        <ele>112.5</ele>
        <time>2025-10-02T07:15:49Z</time>
      </trkpt>
      <trkpt lat="48.60793" lon="1.94725">
        <ele>112.9</ele>
        <time>2025-10-02T07:15:56Z</time>
      </trkpt>
      <trkpt lat="48.60799" lon="1.94714">
        <ele>113.3</ele>
        <time>2025-10-02T07:16:03Z</time>
      </trkpt>
      <trkpt lat="48.60805" lon="1.94702">
        <ele>113.7</ele>
        <time>2025-10-02T07:16:10Z</time>
      </trkpt>
      <trkpt lat="48.6081" lon="1.94691">
        <ele>113.9</ele>
        <time>2025-10-02T07:16:17Z</time>
      </trkpt>
      <trkpt lat="48.60815" lon="1.94679">
        <ele>113.9</ele>
        <time>2025-10-02T07:16:24Z</time>
      </trkpt>
      <trkpt lat="48.60821" lon="1.94667">
        <ele>114</ele>
        <time>2025-10-02T07:16:32Z</time>
      </trkpt>
      <trkpt lat="48.60827" lon="1.94656">
        <ele>114.4</ele>
        <time>2025-10-02T07:16:39Z</time>
      </trkpt>
      <trkpt lat="48.60832" lon="1.94644">
        <ele>114.8</ele>
        <time>2025-10-02T07:16:46Z</time>
      </trkpt>
      <trkpt lat="48.60838" lon="1.94633">
        <ele>115</ele>
        <time>2025-10-02T07:16:53Z</time>
      </trkpt>
      <trkpt lat="48.60843" lon="1.94621">
        <ele>115</ele>
        <time>2025-10-02T07:17:01Z</time>
      </trkpt>
      <trkpt lat="48.60849" lon="1.94611">
        <ele>115</ele>
        <time>2025-10-02T07:17:09Z</time>
      </trkpt>
      <trkpt lat="48.60855" lon="1.94599">
        <ele>115.4</ele>
        <time>2025-10-02T07:17:17Z</time>
      </trkpt>
      <trkpt lat="48.60861" lon="1.94587">
        <ele>115.9</ele>
        <time>2025-10-02T07:17:24Z</time>
      </trkpt>
      <trkpt lat="48.60865" lon="1.94575">
        <ele>116</ele>
        <time>2025-10-02T07:17:31Z</time>
      </trkpt>
      <trkpt lat="48.60871" lon="1.94563">
        <ele>116</ele>
        <time>2025-10-02T07:17:39Z</time>
      </trkpt>
      <trkpt lat="48.60876" lon="1.94551">
        <ele>116</ele>
        <time>2025-10-02T07:17:46Z</time>
      </trkpt>
      <trkpt lat="48.60881" lon="1.9454">
        <ele>116</ele>
        <time>2025-10-02T07:17:53Z</time>
      </trkpt>
      <trkpt lat="48.60889" lon="1.9453">
        <ele>116</ele>
        <time>2025-10-02T07:18:01Z</time>
      </trkpt>
      <trkpt lat="48.60894" lon="1.94518">
        <ele>115.8</ele>
        <time>2025-10-02T07:18:08Z</time>
      </trkpt>
      <trkpt lat="48.609" lon="1.94507">
        <ele>115.6</ele>
        <time>2025-10-02T07:18:15Z</time>
      </trkpt>
      <trkpt lat="48.60905" lon="1.94495">
        <ele>115.5</ele>
        <time>2025-10-02T07:18:22Z</time>
      </trkpt>
      <trkpt lat="48.60911" lon="1.94483">
        <ele>115.7</ele>
        <time>2025-10-02T07:18:29Z</time>
      </trkpt>
      <trkpt lat="48.60917" lon="1.94472">
        <ele>116</ele>
        <time>2025-10-02T07:18:36Z</time>
      </trkpt>
      <trkpt lat="48.60923" lon="1.9446">
        <ele>116.1</ele>
        <time>2025-10-02T07:18:44Z</time>
      </trkpt>
      <trkpt lat="48.60928" lon="1.94449">
        <ele>116.3</ele>
        <time>2025-10-02T07:18:51Z</time>
      </trkpt>
      <trkpt lat="48.60935" lon="1.94437">
        <ele>116.7</ele>
        <time>2025-10-02T07:19:00Z</time>
      </trkpt>
      <trkpt lat="48.6094" lon="1.94426">
        <ele>116.9</ele>
        <time>2025-10-02T07:19:06Z</time>
      </trkpt>
      <trkpt lat="48.60945" lon="1.94414">
        <ele>117</ele>
        <time>2025-10-02T07:19:13Z</time>
      </trkpt>
      <trkpt lat="48.60951" lon="1.94401">
        <ele>117</ele>
        <time>2025-10-02T07:19:21Z</time>
      </trkpt>
      <trkpt lat="48.60957" lon="1.94389">
        <ele>117</ele>
        <time>2025-10-02T07:19:29Z</time>
      </trkpt>
      <trkpt lat="48.60964" lon="1.94377">
        <ele>117</ele>
        <time>2025-10-02T07:19:37Z</time>
      </trkpt>
      <trkpt lat="48.6097" lon="1.94365">
        <ele>117</ele>
        <time>2025-10-02T07:19:45Z</time>
      </trkpt>
      <trkpt lat="48.60976" lon="1.94353">
        <ele>117</ele>
        <time>2025-10-02T07:19:54Z</time>
      </trkpt>
      <trkpt lat="48.60981" lon="1.94341">
        <ele>117</ele>
        <time>2025-10-02T07:20:03Z</time>
      </trkpt>
      <trkpt lat="48.60988" lon="1.9433">
        <ele>117</ele>
        <time>2025-10-02T07:20:11Z</time>
      </trkpt>
      <trkpt lat="48.60994" lon="1.94319">
        <ele>117.1</ele>
        <time>2025-10-02T07:20:19Z</time>
      </trkpt>
      <trkpt lat="48.60999" lon="1.94306">
        <ele>117</ele>
        <time>2025-10-02T07:20:27Z</time>
      </trkpt>
      <trkpt lat="48.61005" lon="1.94294">
        <ele>117</ele>
        <time>2025-10-02T07:20:35Z</time>
      </trkpt>
      <trkpt lat="48.61011" lon="1.94283">
        <ele>117</ele>
        <time>2025-10-02T07:20:42Z</time>
      </trkpt>
      <trkpt lat="48.61017" lon="1.94271">
        <ele>117.1</ele>
        <time>2025-10-02T07:20:49Z</time>
      </trkpt>
      <trkpt lat="48.61023" lon="1.9426">
        <ele>117.1</ele>
        <time>2025-10-02T07:20:56Z</time>
      </trkpt>
      <trkpt lat="48.6103" lon="1.94248">
        <ele>117</ele>
        <time>2025-10-02T07:21:03Z</time>
      </trkpt>
      <trkpt lat="48.61033" lon="1.94234">
        <ele>117</ele>
        <time>2025-10-02T07:21:11Z</time>
      </trkpt>
      <trkpt lat="48.6104" lon="1.94224">
        <ele>117</ele>
        <time>2025-10-02T07:21:19Z</time>
      </trkpt>
      <trkpt lat="48.61045" lon="1.9421">
        <ele>117.2</ele>
        <time>2025-10-02T07:21:27Z</time>
      </trkpt>
      <trkpt lat="48.6105" lon="1.94198">
        <ele>117.2</ele>
        <time>2025-10-02T07:21:34Z</time>
      </trkpt>
      <trkpt lat="48.61056" lon="1.94187">
        <ele>117.3</ele>
        <time>2025-10-02T07:21:41Z</time>
      </trkpt>
      <trkpt lat="48.61062" lon="1.94176">
        <ele>117.8</ele>
        <time>2025-10-02T07:21:48Z</time>
      </trkpt>
      <trkpt lat="48.61067" lon="1.94164">
        <ele>118</ele>
        <time>2025-10-02T07:21:56Z</time>
      </trkpt>
      <trkpt lat="48.61073" lon="1.94153">
        <ele>118.3</ele>
        <time>2025-10-02T07:22:03Z</time>
      </trkpt>
      <trkpt lat="48.61078" lon="1.94142">
        <ele>118.7</ele>
        <time>2025-10-02T07:22:10Z</time>
      </trkpt>
      <trkpt lat="48.61084" lon="1.94129">
        <ele>119</ele>
        <time>2025-10-02T07:22:17Z</time>
      </trkpt>
      <trkpt lat="48.61089" lon="1.94117">
        <ele>119.2</ele>
        <time>2025-10-02T07:22:24Z</time>
      </trkpt>
      <trkpt lat="48.61096" lon="1.94106">
        <ele>119.4</ele>
        <time>2025-10-02T07:22:31Z</time>
      </trkpt>
      <trkpt lat="48.61101" lon="1.94095">
        <ele>119.6</ele>
        <time>2025-10-02T07:22:38Z</time>
      </trkpt>
      <trkpt lat="48.61106" lon="1.94083">
        <ele>119.8</ele>
        <time>2025-10-02T07:22:45Z</time>
      </trkpt>
      <trkpt lat="48.61107" lon="1.94069">
        <ele>119.9</ele>
        <time>2025-10-02T07:22:54Z</time>
      </trkpt>
      <trkpt lat="48.61101" lon="1.94057">
        <ele>120</ele>
        <time>2025-10-02T07:23:03Z</time>
      </trkpt>
      <trkpt lat="48.61093" lon="1.94049">
        <ele>120</ele>
        <time>2025-10-02T07:23:13Z</time>
      </trkpt>
      <trkpt lat="48.61088" lon="1.94037">
        <ele>120</ele>
        <time>2025-10-02T07:23:21Z</time>
      </trkpt>
      <trkpt lat="48.61082" lon="1.94025">
        <ele>120</ele>
        <time>2025-10-02T07:23:29Z</time>
      </trkpt>
      <trkpt lat="48.61075" lon="1.94015">
        <ele>120.3</ele>
        <time>2025-10-02T07:23:36Z</time>
      </trkpt>
      <trkpt lat="48.61071" lon="1.94003">
        <ele>120.4</ele>
        <time>2025-10-02T07:23:43Z</time>
      </trkpt>
      <trkpt lat="48.61065" lon="1.93993">
        <ele>120.5</ele>
        <time>2025-10-02T07:23:50Z</time>
      </trkpt>
      <trkpt lat="48.6106" lon="1.93981">
        <ele>120.3</ele>
        <time>2025-10-02T07:23:57Z</time>
      </trkpt>
      <trkpt lat="48.61054" lon="1.93971">
        <ele>120</ele>
        <time>2025-10-02T07:24:05Z</time>
      </trkpt>
      <trkpt lat="48.61047" lon="1.93961">
        <ele>120</ele>
        <time>2025-10-02T07:24:13Z</time>
      </trkpt>
      <trkpt lat="48.61047" lon="1.93946">
        <ele>120</ele>
        <time>2025-10-02T07:24:21Z</time>
      </trkpt>
      <trkpt lat="48.61045" lon="1.93932">
        <ele>120</ele>
        <time>2025-10-02T07:24:30Z</time>
      </trkpt>
      <trkpt lat="48.61049" lon="1.9392">
        <ele>120</ele>
        <time>2025-10-02T07:24:36Z</time>
      </trkpt>
      <trkpt lat="48.6105" lon="1.93905">
        <ele>120</ele>
        <time>2025-10-02T07:24:45Z</time>
      </trkpt>
      <trkpt lat="48.61051" lon="1.93891">
        <ele>120</ele>
        <time>2025-10-02T07:24:54Z</time>
      </trkpt>
      <trkpt lat="48.61049" lon="1.93876">
        <ele>120</ele>
        <time>2025-10-02T07:25:02Z</time>
      </trkpt>
      <trkpt lat="48.61043" lon="1.93864">
        <ele>120</ele>
        <time>2025-10-02T07:25:09Z</time>
      </trkpt>
      <trkpt lat="48.61036" lon="1.93854">
        <ele>120</ele>
        <time>2025-10-02T07:25:17Z</time>
      </trkpt>
      <trkpt lat="48.6104" lon="1.93843">
        <ele>120</ele>
        <time>2025-10-02T07:25:27Z</time>
      </trkpt>
      <trkpt lat="48.61038" lon="1.93829">
        <ele>120</ele>
        <time>2025-10-02T07:25:37Z</time>
      </trkpt>
      <trkpt lat="48.61036" lon="1.93816">
        <ele>120</ele>
        <time>2025-10-02T07:25:45Z</time>
      </trkpt>
      <trkpt lat="48.61041" lon="1.93804">
        <ele>120</ele>
        <time>2025-10-02T07:25:52Z</time>
      </trkpt>
      <trkpt lat="48.6104" lon="1.9379">
        <ele>119.7</ele>
        <time>2025-10-02T07:26:01Z</time>
      </trkpt>
      <trkpt lat="48.61033" lon="1.9378">
        <ele>119.3</ele>
        <time>2025-10-02T07:26:09Z</time>
      </trkpt>
      <trkpt lat="48.61036" lon="1.93766">
        <ele>119.2</ele>
        <time>2025-10-02T07:26:16Z</time>
      </trkpt>
      <trkpt lat="48.61037" lon="1.93752">
        <ele>119</ele>
        <time>2025-10-02T07:26:23Z</time>
      </trkpt>
      <trkpt lat="48.61035" lon="1.93738">
        <ele>119</ele>
        <time>2025-10-02T07:26:31Z</time>
      </trkpt>
      <trkpt lat="48.61033" lon="1.93723">
        <ele>119</ele>
        <time>2025-10-02T07:26:39Z</time>
      </trkpt>
      <trkpt lat="48.61032" lon="1.93709">
        <ele>119</ele>
        <time>2025-10-02T07:26:47Z</time>
      </trkpt>
      <trkpt lat="48.61033" lon="1.93693">
        <ele>119</ele>
        <time>2025-10-02T07:26:55Z</time>
      </trkpt>
      <trkpt lat="48.61034" lon="1.93679">
        <ele>119.5</ele>
        <time>2025-10-02T07:27:02Z</time>
      </trkpt>
      <trkpt lat="48.61038" lon="1.93666">
        <ele>120</ele>
        <time>2025-10-02T07:27:09Z</time>
      </trkpt>
      <trkpt lat="48.61041" lon="1.93651">
        <ele>120</ele>
        <time>2025-10-02T07:27:17Z</time>
      </trkpt>
      <trkpt lat="48.61043" lon="1.93637">
        <ele>120.1</ele>
        <time>2025-10-02T07:27:24Z</time>
      </trkpt>
      <trkpt lat="48.61046" lon="1.93624">
        <ele>120.6</ele>
        <time>2025-10-02T07:27:31Z</time>
      </trkpt>
      <trkpt lat="48.61049" lon="1.93609">
        <ele>121.1</ele>
        <time>2025-10-02T07:27:38Z</time>
      </trkpt>
      <trkpt lat="48.61052" lon="1.93595">
        <ele>121.5</ele>
        <time>2025-10-02T07:27:46Z</time>
      </trkpt>
      <trkpt lat="48.61055" lon="1.93582">
        <ele>122</ele>
        <time>2025-10-02T07:27:53Z</time>
      </trkpt>
      <trkpt lat="48.61059" lon="1.93568">
        <ele>122.5</ele>
        <time>2025-10-02T07:28:02Z</time>
      </trkpt>
      <trkpt lat="48.61068" lon="1.93573">
        <ele>122.4</ele>
        <time>2025-10-02T07:28:09Z</time>
      </trkpt>
      <trkpt lat="48.6106" lon="1.93566">
        <ele>122.6</ele>
        <time>2025-10-02T07:28:33Z</time>
      </trkpt>
      <trkpt lat="48.61053" lon="1.93555">
        <ele>122.9</ele>
        <time>2025-10-02T07:28:40Z</time>
      </trkpt>
      <trkpt lat="48.61046" lon="1.93545">
        <ele>123</ele>
        <time>2025-10-02T07:28:47Z</time>
      </trkpt>
      <trkpt lat="48.61038" lon="1.93534">
        <ele>123.1</ele>
        <time>2025-10-02T07:28:54Z</time>
      </trkpt>
      <trkpt lat="48.6103" lon="1.93526">
        <ele>123.2</ele>
        <time>2025-10-02T07:29:02Z</time>
      </trkpt>
      <trkpt lat="48.61022" lon="1.93516">
        <ele>123.8</ele>
        <time>2025-10-02T07:29:09Z</time>
      </trkpt>
      <trkpt lat="48.61021" lon="1.93501">
        <ele>124.7</ele>
        <time>2025-10-02T07:29:15Z</time>
      </trkpt>
      <trkpt lat="48.61027" lon="1.9349">
        <ele>125.7</ele>
        <time>2025-10-02T07:29:22Z</time>
      </trkpt>
      <trkpt lat="48.6103" lon="1.93476">
        <ele>126.8</ele>
        <time>2025-10-02T07:29:29Z</time>
      </trkpt>
      <trkpt lat="48.61033" lon="1.93463">
        <ele>128.2</ele>
        <time>2025-10-02T07:29:36Z</time>
      </trkpt>
      <trkpt lat="48.61037" lon="1.9345">
        <ele>129.7</ele>
        <time>2025-10-02T07:29:44Z</time>
      </trkpt>
      <trkpt lat="48.61039" lon="1.93436">
        <ele>130.8</ele>
        <time>2025-10-02T07:29:51Z</time>
      </trkpt>
      <trkpt lat="48.61042" lon="1.93422">
        <ele>131.7</ele>
        <time>2025-10-02T07:29:59Z</time>
      </trkpt>
      <trkpt lat="48.61045" lon="1.93409">
        <ele>132.7</ele>
        <time>2025-10-02T07:30:07Z</time>
      </trkpt>
      <trkpt lat="48.61049" lon="1.93395">
        <ele>133.9</ele>
        <time>2025-10-02T07:30:15Z</time>
      </trkpt>
      <trkpt lat="48.61054" lon="1.93381">
        <ele>135.1</ele>
        <time>2025-10-02T07:30:23Z</time>
      </trkpt>
      <trkpt lat="48.61057" lon="1.93368">
        <ele>135.7</ele>
        <time>2025-10-02T07:30:31Z</time>
      </trkpt>
      <trkpt lat="48.61063" lon="1.93357">
        <ele>136.3</ele>
        <time>2025-10-02T07:30:39Z</time>
      </trkpt>
      <trkpt lat="48.61071" lon="1.93348">
        <ele>136.9</ele>
        <time>2025-10-02T07:30:48Z</time>
      </trkpt>
      <trkpt lat="48.6108" lon="1.93344">
        <ele>137.2</ele>
        <time>2025-10-02T07:30:56Z</time>
      </trkpt>
      <trkpt lat="48.6109" lon="1.93341">
        <ele>136.4</ele>
        <time>2025-10-02T07:31:03Z</time>
      </trkpt>
      <trkpt lat="48.61101" lon="1.93341">
        <ele>134.8</ele>
        <time>2025-10-02T07:31:10Z</time>
      </trkpt>
      <trkpt lat="48.61109" lon="1.93335">
        <ele>134.1</ele>
        <time>2025-10-02T07:31:17Z</time>
      </trkpt>
      <trkpt lat="48.61118" lon="1.93329">
        <ele>133.4</ele>
        <time>2025-10-02T07:31:24Z</time>
      </trkpt>
      <trkpt lat="48.61127" lon="1.93323">
        <ele>132.5</ele>
        <time>2025-10-02T07:31:31Z</time>
      </trkpt>
      <trkpt lat="48.61137" lon="1.9332">
        <ele>131.3</ele>
        <time>2025-10-02T07:31:38Z</time>
      </trkpt>
      <trkpt lat="48.61146" lon="1.93318">
        <ele>131</ele>
        <time>2025-10-02T07:31:45Z</time>
      </trkpt>
      <trkpt lat="48.61156" lon="1.93314">
        <ele>131.2</ele>
        <time>2025-10-02T07:31:53Z</time>
      </trkpt>
      <trkpt lat="48.61166" lon="1.93311">
        <ele>131.5</ele>
        <time>2025-10-02T07:32:00Z</time>
      </trkpt>
      <trkpt lat="48.61175" lon="1.93307">
        <ele>131.9</ele>
        <time>2025-10-02T07:32:07Z</time>
      </trkpt>
      <trkpt lat="48.61184" lon="1.93303">
        <ele>132.3</ele>
        <time>2025-10-02T07:32:15Z</time>
      </trkpt>
      <trkpt lat="48.61193" lon="1.93298">
        <ele>132.8</ele>
        <time>2025-10-02T07:32:23Z</time>
      </trkpt>
      <trkpt lat="48.61202" lon="1.93295">
        <ele>133.2</ele>
        <time>2025-10-02T07:32:30Z</time>
      </trkpt>
      <trkpt lat="48.61211" lon="1.93293">
        <ele>133.4</ele>
        <time>2025-10-02T07:32:36Z</time>
      </trkpt>
      <trkpt lat="48.61221" lon="1.93294">
        <ele>133.4</ele>
        <time>2025-10-02T07:32:42Z</time>
      </trkpt>
      <trkpt lat="48.61229" lon="1.93302">
        <ele>133.8</ele>
        <time>2025-10-02T07:32:49Z</time>
      </trkpt>
      <trkpt lat="48.61237" lon="1.93309">
        <ele>134.5</ele>
        <time>2025-10-02T07:32:56Z</time>
      </trkpt>
      <trkpt lat="48.61244" lon="1.93318">
        <ele>135.3</ele>
        <time>2025-10-02T07:33:04Z</time>
      </trkpt>
      <trkpt lat="48.61251" lon="1.93328">
        <ele>136</ele>
        <time>2025-10-02T07:33:12Z</time>
      </trkpt>
      <trkpt lat="48.61255" lon="1.9334">
        <ele>135.9</ele>
        <time>2025-10-02T07:33:20Z</time>
      </trkpt>
      <trkpt lat="48.61265" lon="1.93347">
        <ele>136</ele>
        <time>2025-10-02T07:33:28Z</time>
      </trkpt>
      <trkpt lat="48.61273" lon="1.93355">
        <ele>136</ele>
        <time>2025-10-02T07:33:34Z</time>
      </trkpt>
      <trkpt lat="48.6128" lon="1.93364">
        <ele>136</ele>
        <time>2025-10-02T07:33:41Z</time>
      </trkpt>
      <trkpt lat="48.61289" lon="1.93372">
        <ele>136</ele>
        <time>2025-10-02T07:33:49Z</time>
      </trkpt>
      <trkpt lat="48.61296" lon="1.93381">
        <ele>135.9</ele>
        <time>2025-10-02T07:33:57Z</time>
      </trkpt>
      <trkpt lat="48.61304" lon="1.93388">
        <ele>136</ele>
        <time>2025-10-02T07:34:03Z</time>
      </trkpt>
      <trkpt lat="48.61308" lon="1.93374">
        <ele>136.6</ele>
        <time>2025-10-02T07:34:16Z</time>
      </trkpt>
      <trkpt lat="48.6131" lon="1.93359">
        <ele>137.3</ele>
        <time>2025-10-02T07:34:23Z</time>
      </trkpt>
      <trkpt lat="48.61318" lon="1.93351">
        <ele>138</ele>
        <time>2025-10-02T07:34:30Z</time>
      </trkpt>
      <trkpt lat="48.61322" lon="1.93337">
        <ele>139</ele>
        <time>2025-10-02T07:34:38Z</time>
      </trkpt>
      <trkpt lat="48.61325" lon="1.93323">
        <ele>139.7</ele>
        <time>2025-10-02T07:34:47Z</time>
      </trkpt>
      <trkpt lat="48.61327" lon="1.93309">
        <ele>140.4</ele>
        <time>2025-10-02T07:34:55Z</time>
      </trkpt>
      <trkpt lat="48.61331" lon="1.93296">
        <ele>141.2</ele>
        <time>2025-10-02T07:35:04Z</time>
      </trkpt>
      <trkpt lat="48.61335" lon="1.93282">
        <ele>142</ele>
        <time>2025-10-02T07:35:13Z</time>
      </trkpt>
      <trkpt lat="48.61337" lon="1.93269">
        <ele>142.7</ele>
        <time>2025-10-02T07:35:22Z</time>
      </trkpt>
      <trkpt lat="48.6134" lon="1.93255">
        <ele>143.5</ele>
        <time>2025-10-02T07:35:31Z</time>
      </trkpt>
      <trkpt lat="48.61343" lon="1.93242">
        <ele>144.2</ele>
        <time>2025-10-02T07:35:39Z</time>
      </trkpt>
      <trkpt lat="48.61348" lon="1.9323">
        <ele>145.3</ele>
        <time>2025-10-02T07:35:47Z</time>
      </trkpt>
      <trkpt lat="48.61355" lon="1.9322">
        <ele>147</ele>
        <time>2025-10-02T07:35:56Z</time>
      </trkpt>
      <trkpt lat="48.61363" lon="1.93213">
        <ele>148.5</ele>
        <time>2025-10-02T07:36:05Z</time>
      </trkpt>
      <trkpt lat="48.6137" lon="1.93203">
        <ele>149.5</ele>
        <time>2025-10-02T07:36:14Z</time>
      </trkpt>
      <trkpt lat="48.61377" lon="1.93195">
        <ele>150.7</ele>
        <time>2025-10-02T07:36:22Z</time>
      </trkpt>
      <trkpt lat="48.6138" lon="1.93181">
        <ele>151.7</ele>
        <time>2025-10-02T07:36:30Z</time>
      </trkpt>
      <trkpt lat="48.61382" lon="1.93168">
        <ele>152.7</ele>
        <time>2025-10-02T07:36:38Z</time>
      </trkpt>
      <trkpt lat="48.6139" lon="1.93159">
        <ele>154.2</ele>
        <time>2025-10-02T07:36:47Z</time>
      </trkpt>
      <trkpt lat="48.61399" lon="1.93153">
        <ele>155.6</ele>
        <time>2025-10-02T07:36:56Z</time>
      </trkpt>
      <trkpt lat="48.61406" lon="1.93144">
        <ele>157</ele>
        <time>2025-10-02T07:37:04Z</time>
      </trkpt>
      <trkpt lat="48.61415" lon="1.93137">
        <ele>158.6</ele>
        <time>2025-10-02T07:37:13Z</time>
      </trkpt>
      <trkpt lat="48.61424" lon="1.93131">
        <ele>160.3</ele>
        <time>2025-10-02T07:37:21Z</time>
      </trkpt>
      <trkpt lat="48.61432" lon="1.93122">
        <ele>162</ele>
        <time>2025-10-02T07:37:32Z</time>
      </trkpt>
      <trkpt lat="48.61439" lon="1.93113">
        <ele>163.5</ele>
        <time>2025-10-02T07:37:41Z</time>
      </trkpt>
      <trkpt lat="48.61444" lon="1.93101">
        <ele>164.8</ele>
        <time>2025-10-02T07:37:50Z</time>
      </trkpt>
      <trkpt lat="48.61452" lon="1.93094">
        <ele>166.3</ele>
        <time>2025-10-02T07:38:00Z</time>
      </trkpt>
      <trkpt lat="48.61459" lon="1.93083">
        <ele>167.7</ele>
        <time>2025-10-02T07:38:09Z</time>
      </trkpt>
      <trkpt lat="48.61467" lon="1.93075">
        <ele>169</ele>
        <time>2025-10-02T07:38:18Z</time>
      </trkpt>
      <trkpt lat="48.61474" lon="1.93066">
        <ele>170.1</ele>
        <time>2025-10-02T07:38:27Z</time>
      </trkpt>
      <trkpt lat="48.61483" lon="1.93062">
        <ele>170.4</ele>
        <time>2025-10-02T07:38:35Z</time>
      </trkpt>
      <trkpt lat="48.61492" lon="1.93056">
        <ele>170.7</ele>
        <time>2025-10-02T07:38:42Z</time>
      </trkpt>
      <trkpt lat="48.615" lon="1.93051">
        <ele>170.8</ele>
        <time>2025-10-02T07:38:49Z</time>
      </trkpt>
      <trkpt lat="48.61509" lon="1.93046">
        <ele>171</ele>
        <time>2025-10-02T07:38:56Z</time>
      </trkpt>
      <trkpt lat="48.61518" lon="1.93041">
        <ele>171.1</ele>
        <time>2025-10-02T07:39:03Z</time>
      </trkpt>
      <trkpt lat="48.61526" lon="1.93034">
        <ele>171.1</ele>
        <time>2025-10-02T07:39:09Z</time>
      </trkpt>
      <trkpt lat="48.61534" lon="1.93028">
        <ele>171.2</ele>
        <time>2025-10-02T07:39:16Z</time>
      </trkpt>
      <trkpt lat="48.61543" lon="1.93022">
        <ele>171.5</ele>
        <time>2025-10-02T07:39:23Z</time>
      </trkpt>
      <trkpt lat="48.61552" lon="1.93017">
        <ele>171.9</ele>
        <time>2025-10-02T07:39:30Z</time>
      </trkpt>
      <trkpt lat="48.61561" lon="1.93012">
        <ele>172</ele>
        <time>2025-10-02T07:39:37Z</time>
      </trkpt>
      <trkpt lat="48.6157" lon="1.93005">
        <ele>172</ele>
        <time>2025-10-02T07:39:44Z</time>
      </trkpt>
      <trkpt lat="48.61578" lon="1.92998">
        <ele>172</ele>
        <time>2025-10-02T07:39:51Z</time>
      </trkpt>
      <trkpt lat="48.61586" lon="1.93007">
        <ele>172</ele>
        <time>2025-10-02T07:40:05Z</time>
      </trkpt>
      <trkpt lat="48.61583" lon="1.92994">
        <ele>172</ele>
        <time>2025-10-02T07:43:07Z</time>
      </trkpt>
      <trkpt lat="48.61593" lon="1.9299">
        <ele>172</ele>
        <time>2025-10-02T07:43:24Z</time>
      </trkpt>
      <trkpt lat="48.61602" lon="1.92985">
        <ele>172</ele>
        <time>2025-10-02T07:43:33Z</time>
      </trkpt>
      <trkpt lat="48.6161" lon="1.92978">
        <ele>172</ele>
        <time>2025-10-02T07:43:42Z</time>
      </trkpt>
      <trkpt lat="48.61619" lon="1.92971">
        <ele>172</ele>
        <time>2025-10-02T07:43:50Z</time>
      </trkpt>
      <trkpt lat="48.61627" lon="1.92965">
        <ele>172.3</ele>
        <time>2025-10-02T07:43:57Z</time>
      </trkpt>
      <trkpt lat="48.61636" lon="1.9296">
        <ele>172.4</ele>
        <time>2025-10-02T07:44:04Z</time>
      </trkpt>
      <trkpt lat="48.61645" lon="1.92956">
        <ele>172.6</ele>
        <time>2025-10-02T07:44:12Z</time>
      </trkpt>
      <trkpt lat="48.61655" lon="1.92955">
        <ele>172.6</ele>
        <time>2025-10-02T07:44:21Z</time>
      </trkpt>
      <trkpt lat="48.6166" lon="1.92966">
        <ele>172.2</ele>
        <time>2025-10-02T07:44:32Z</time>
      </trkpt>
      <trkpt lat="48.6166" lon="1.9298">
        <ele>172</ele>
        <time>2025-10-02T07:44:39Z</time>
      </trkpt>
      <trkpt lat="48.61659" lon="1.92995">
        <ele>172</ele>
        <time>2025-10-02T07:44:48Z</time>
      </trkpt>
      <trkpt lat="48.61661" lon="1.93009">
        <ele>172</ele>
        <time>2025-10-02T07:44:55Z</time>
      </trkpt>
      <trkpt lat="48.61662" lon="1.93023">
        <ele>172</ele>
        <time>2025-10-02T07:45:02Z</time>
      </trkpt>
      <trkpt lat="48.61665" lon="1.93037">
        <ele>172</ele>
        <time>2025-10-02T07:45:09Z</time>
      </trkpt>
      <trkpt lat="48.61667" lon="1.93052">
        <ele>172</ele>
        <time>2025-10-02T07:45:16Z</time>
      </trkpt>
      <trkpt lat="48.61669" lon="1.93067">
        <ele>172</ele>
        <time>2025-10-02T07:45:23Z</time>
      </trkpt>
      <trkpt lat="48.6167" lon="1.93081">
        <ele>172</ele>
        <time>2025-10-02T07:45:29Z</time>
      </trkpt>
      <trkpt lat="48.61672" lon="1.93097">
        <ele>172</ele>
        <time>2025-10-02T07:45:36Z</time>
      </trkpt>
      <trkpt lat="48.61674" lon="1.93111">
        <ele>172</ele>
        <time>2025-10-02T07:45:42Z</time>
      </trkpt>
      <trkpt lat="48.61675" lon="1.93125">
        <ele>171.5</ele>
        <time>2025-10-02T07:45:48Z</time>
      </trkpt>
      <trkpt lat="48.61677" lon="1.93139">
        <ele>171</ele>
        <time>2025-10-02T07:45:54Z</time>
      </trkpt>
      <trkpt lat="48.61678" lon="1.93153">
        <ele>171</ele>
        <time>2025-10-02T07:46:01Z</time>
      </trkpt>
      <trkpt lat="48.6168" lon="1.93168">
        <ele>171</ele>
        <time>2025-10-02T07:46:08Z</time>
      </trkpt>
      <trkpt lat="48.61682" lon="1.93183">
        <ele>171</ele>
        <time>2025-10-02T07:46:15Z</time>
      </trkpt>
      <trkpt lat="48.61683" lon="1.93199">
        <ele>171</ele>
        <time>2025-10-02T07:46:22Z</time>
      </trkpt>
      <trkpt lat="48.61683" lon="1.93213">
        <ele>171</ele>
        <time>2025-10-02T07:46:28Z</time>
      </trkpt>
      <trkpt lat="48.61683" lon="1.93228">
        <ele>171</ele>
        <time>2025-10-02T07:46:35Z</time>
      </trkpt>
      <trkpt lat="48.61681" lon="1.93243">
        <ele>171</ele>
        <time>2025-10-02T07:46:42Z</time>
      </trkpt>
      <trkpt lat="48.61679" lon="1.93258">
        <ele>170.7</ele>
        <time>2025-10-02T07:46:49Z</time>
      </trkpt>
      <trkpt lat="48.61678" lon="1.93273">
        <ele>170.2</ele>
        <time>2025-10-02T07:46:56Z</time>
      </trkpt>
      <trkpt lat="48.61677" lon="1.93289">
        <ele>170</ele>
        <time>2025-10-02T07:47:03Z</time>
      </trkpt>
      <trkpt lat="48.61675" lon="1.93304">
        <ele>170</ele>
        <time>2025-10-02T07:47:10Z</time>
      </trkpt>
      <trkpt lat="48.61675" lon="1.93318">
        <ele>170</ele>
        <time>2025-10-02T07:47:16Z</time>
      </trkpt>
      <trkpt lat="48.61676" lon="1.93332">
        <ele>170</ele>
        <time>2025-10-02T07:47:23Z</time>
      </trkpt>
      <trkpt lat="48.61676" lon="1.93347">
        <ele>169.7</ele>
        <time>2025-10-02T07:47:30Z</time>
      </trkpt>
      <trkpt lat="48.61676" lon="1.93362">
        <ele>169.3</ele>
        <time>2025-10-02T07:47:37Z</time>
      </trkpt>
      <trkpt lat="48.61675" lon="1.93378">
        <ele>169.3</ele>
        <time>2025-10-02T07:47:44Z</time>
      </trkpt>
      <trkpt lat="48.61675" lon="1.93393">
        <ele>169.3</ele>
        <time>2025-10-02T07:47:50Z</time>
      </trkpt>
      <trkpt lat="48.61673" lon="1.93408">
        <ele>169.1</ele>
        <time>2025-10-02T07:47:57Z</time>
      </trkpt>
      <trkpt lat="48.61671" lon="1.93422">
        <ele>169</ele>
        <time>2025-10-02T07:48:04Z</time>
      </trkpt>
      <trkpt lat="48.61669" lon="1.93437">
        <ele>169</ele>
        <time>2025-10-02T07:48:11Z</time>
      </trkpt>
      <trkpt lat="48.61669" lon="1.93451">
        <ele>168.8</ele>
        <time>2025-10-02T07:48:18Z</time>
      </trkpt>
      <trkpt lat="48.61668" lon="1.93465">
        <ele>168.3</ele>
        <time>2025-10-02T07:48:25Z</time>
      </trkpt>
      <trkpt lat="48.61667" lon="1.9348">
        <ele>168</ele>
        <time>2025-10-02T07:48:32Z</time>
      </trkpt>
      <trkpt lat="48.61666" lon="1.93495">
        <ele>168</ele>
        <time>2025-10-02T07:48:39Z</time>
      </trkpt>
      <trkpt lat="48.61663" lon="1.93508">
        <ele>167.9</ele>
        <time>2025-10-02T07:48:46Z</time>
      </trkpt>
      <trkpt lat="48.61659" lon="1.93521">
        <ele>167.7</ele>
        <time>2025-10-02T07:48:52Z</time>
      </trkpt>
      <trkpt lat="48.61656" lon="1.93535">
        <ele>167.6</ele>
        <time>2025-10-02T07:48:59Z</time>
      </trkpt>
      <trkpt lat="48.61653" lon="1.93549">
        <ele>167.5</ele>
        <time>2025-10-02T07:49:06Z</time>
      </trkpt>
      <trkpt lat="48.61649" lon="1.93564">
        <ele>167.4</ele>
        <time>2025-10-02T07:49:13Z</time>
      </trkpt>
      <trkpt lat="48.61648" lon="1.93579">
        <ele>167.3</ele>
        <time>2025-10-02T07:49:20Z</time>
      </trkpt>
      <trkpt lat="48.61645" lon="1.93593">
        <ele>167.1</ele>
        <time>2025-10-02T07:49:27Z</time>
      </trkpt>
      <trkpt lat="48.61642" lon="1.93607">
        <ele>167</ele>
        <time>2025-10-02T07:49:35Z</time>
      </trkpt>
      <trkpt lat="48.61638" lon="1.93621">
        <ele>167</ele>
        <time>2025-10-02T07:49:42Z</time>
      </trkpt>
      <trkpt lat="48.61634" lon="1.93634">
        <ele>166.8</ele>
        <time>2025-10-02T07:49:49Z</time>
      </trkpt>
      <trkpt lat="48.6163" lon="1.93646">
        <ele>166.7</ele>
        <time>2025-10-02T07:49:56Z</time>
      </trkpt>
      <trkpt lat="48.61627" lon="1.9366">
        <ele>166.6</ele>
        <time>2025-10-02T07:50:03Z</time>
      </trkpt>
      <trkpt lat="48.61622" lon="1.93672">
        <ele>166.4</ele>
        <time>2025-10-02T07:50:09Z</time>
      </trkpt>
      <trkpt lat="48.61617" lon="1.93684">
        <ele>166.2</ele>
        <time>2025-10-02T07:50:15Z</time>
      </trkpt>
      <trkpt lat="48.61612" lon="1.93696">
        <ele>166</ele>
        <time>2025-10-02T07:50:22Z</time>
      </trkpt>
      <trkpt lat="48.61607" lon="1.93709">
        <ele>165.8</ele>
        <time>2025-10-02T07:50:29Z</time>
      </trkpt>
      <trkpt lat="48.61602" lon="1.93722">
        <ele>165.7</ele>
        <time>2025-10-02T07:50:35Z</time>
      </trkpt>
      <trkpt lat="48.61595" lon="1.93731">
        <ele>165.6</ele>
        <time>2025-10-02T07:50:46Z</time>
      </trkpt>
      <trkpt lat="48.61587" lon="1.93738">
        <ele>165.6</ele>
        <time>2025-10-02T07:50:55Z</time>
      </trkpt>
      <trkpt lat="48.6158" lon="1.93747">
        <ele>165.8</ele>
        <time>2025-10-02T07:51:03Z</time>
      </trkpt>
      <trkpt lat="48.61572" lon="1.93756">
        <ele>165.8</ele>
        <time>2025-10-02T07:51:10Z</time>
      </trkpt>
      <trkpt lat="48.61565" lon="1.93767">
        <ele>165.9</ele>
        <time>2025-10-02T07:51:18Z</time>
      </trkpt>
      <trkpt lat="48.61558" lon="1.93777">
        <ele>166.1</ele>
        <time>2025-10-02T07:51:24Z</time>
      </trkpt>
      <trkpt lat="48.6155" lon="1.93786">
        <ele>165.9</ele>
        <time>2025-10-02T07:51:31Z</time>
      </trkpt>
      <trkpt lat="48.61543" lon="1.93796">
        <ele>166</ele>
        <time>2025-10-02T07:51:38Z</time>
      </trkpt>
      <trkpt lat="48.61536" lon="1.93806">
        <ele>166.3</ele>
        <time>2025-10-02T07:51:45Z</time>
      </trkpt>
      <trkpt lat="48.61529" lon="1.93816">
        <ele>166.1</ele>
        <time>2025-10-02T07:51:53Z</time>
      </trkpt>
      <trkpt lat="48.61524" lon="1.93827">
        <ele>165.7</ele>
        <time>2025-10-02T07:51:59Z</time>
      </trkpt>
      <trkpt lat="48.61518" lon="1.9384">
        <ele>165.6</ele>
        <time>2025-10-02T07:52:07Z</time>
      </trkpt>
      <trkpt lat="48.61513" lon="1.9385">
        <ele>165.5</ele>
        <time>2025-10-02T07:52:13Z</time>
      </trkpt>
      <trkpt lat="48.61508" lon="1.93864">
        <ele>165.6</ele>
        <time>2025-10-02T07:52:20Z</time>
      </trkpt>
      <trkpt lat="48.61502" lon="1.93877">
        <ele>165.6</ele>
        <time>2025-10-02T07:52:27Z</time>
      </trkpt>
      <trkpt lat="48.61496" lon="1.93888">
        <ele>165.6</ele>
        <time>2025-10-02T07:52:34Z</time>
      </trkpt>
      <trkpt lat="48.6149" lon="1.93899">
        <ele>165</ele>
        <time>2025-10-02T07:52:41Z</time>
      </trkpt>
      <trkpt lat="48.61484" lon="1.93911">
        <ele>164.7</ele>
        <time>2025-10-02T07:52:48Z</time>
      </trkpt>
      <trkpt lat="48.61478" lon="1.93923">
        <ele>164.6</ele>
        <time>2025-10-02T07:52:55Z</time>
      </trkpt>
      <trkpt lat="48.61473" lon="1.93936">
        <ele>164.7</ele>
        <time>2025-10-02T07:53:02Z</time>
      </trkpt>
      <trkpt lat="48.61468" lon="1.93949">
        <ele>164.9</ele>
        <time>2025-10-02T07:53:09Z</time>
      </trkpt>
      <trkpt lat="48.61462" lon="1.93959">
        <ele>165</ele>
        <time>2025-10-02T07:53:16Z</time>
      </trkpt>
      <trkpt lat="48.61456" lon="1.9397">
        <ele>165.3</ele>
        <time>2025-10-02T07:53:22Z</time>
      </trkpt>
      <trkpt lat="48.6145" lon="1.93982">
        <ele>165.2</ele>
        <time>2025-10-02T07:53:29Z</time>
      </trkpt>
      <trkpt lat="48.61444" lon="1.93994">
        <ele>165</ele>
        <time>2025-10-02T07:53:36Z</time>
      </trkpt>
      <trkpt lat="48.61439" lon="1.94006">
        <ele>165</ele>
        <time>2025-10-02T07:53:43Z</time>
      </trkpt>
      <trkpt lat="48.61433" lon="1.94017">
        <ele>165.4</ele>
        <time>2025-10-02T07:53:50Z</time>
      </trkpt>
      <trkpt lat="48.61428" lon="1.94028">
        <ele>166</ele>
        <time>2025-10-02T07:53:58Z</time>
      </trkpt>
      <trkpt lat="48.61423" lon="1.94039">
        <ele>166</ele>
        <time>2025-10-02T07:54:05Z</time>
      </trkpt>
      <trkpt lat="48.61416" lon="1.94049">
        <ele>166</ele>
        <time>2025-10-02T07:54:12Z</time>
      </trkpt>
      <trkpt lat="48.61411" lon="1.9406">
        <ele>165.4</ele>
        <time>2025-10-02T07:54:19Z</time>
      </trkpt>
      <trkpt lat="48.61404" lon="1.94073">
        <ele>164.8</ele>
        <time>2025-10-02T07:54:26Z</time>
      </trkpt>
      <trkpt lat="48.61399" lon="1.94084">
        <ele>164.3</ele>
        <time>2025-10-02T07:54:32Z</time>
      </trkpt>
      <trkpt lat="48.61392" lon="1.94095">
        <ele>163.7</ele>
        <time>2025-10-02T07:54:39Z</time>
      </trkpt>
      <trkpt lat="48.61385" lon="1.94104">
        <ele>162.8</ele>
        <time>2025-10-02T07:54:46Z</time>
      </trkpt>
      <trkpt lat="48.61379" lon="1.94115">
        <ele>161.8</ele>
        <time>2025-10-02T07:54:52Z</time>
      </trkpt>
      <trkpt lat="48.61373" lon="1.94126">
        <ele>160.8</ele>
        <time>2025-10-02T07:54:59Z</time>
      </trkpt>
      <trkpt lat="48.61368" lon="1.94137">
        <ele>159.8</ele>
        <time>2025-10-02T07:55:05Z</time>
      </trkpt>
      <trkpt lat="48.61367" lon="1.94152">
        <ele>159.1</ele>
        <time>2025-10-02T07:55:12Z</time>
      </trkpt>
      <trkpt lat="48.61367" lon="1.94166">
        <ele>158.6</ele>
        <time>2025-10-02T07:55:19Z</time>
      </trkpt>
      <trkpt lat="48.61369" lon="1.94181">
        <ele>157.9</ele>
        <time>2025-10-02T07:55:26Z</time>
      </trkpt>
      <trkpt lat="48.6137" lon="1.94195">
        <ele>157.3</ele>
        <time>2025-10-02T07:55:32Z</time>
      </trkpt>
      <trkpt lat="48.61371" lon="1.94209">
        <ele>156.4</ele>
        <time>2025-10-02T07:55:40Z</time>
      </trkpt>
      <trkpt lat="48.61372" lon="1.94223">
        <ele>155.4</ele>
        <time>2025-10-02T07:55:51Z</time>
      </trkpt>
      <trkpt lat="48.61371" lon="1.94238">
        <ele>154.1</ele>
        <time>2025-10-02T07:56:01Z</time>
      </trkpt>
      <trkpt lat="48.61369" lon="1.94253">
        <ele>152.7</ele>
        <time>2025-10-02T07:56:10Z</time>
      </trkpt>
      <trkpt lat="48.61367" lon="1.94267">
        <ele>151.6</ele>
        <time>2025-10-02T07:56:17Z</time>
      </trkpt>
      <trkpt lat="48.61366" lon="1.94281">
        <ele>150.6</ele>
        <time>2025-10-02T07:56:25Z</time>
      </trkpt>
      <trkpt lat="48.61365" lon="1.94294">
        <ele>149.8</ele>
        <time>2025-10-02T07:56:32Z</time>
      </trkpt>
      <trkpt lat="48.61363" lon="1.9431">
        <ele>149</ele>
        <time>2025-10-02T07:56:39Z</time>
      </trkpt>
      <trkpt lat="48.61361" lon="1.94325">
        <ele>148.3</ele>
        <time>2025-10-02T07:56:46Z</time>
      </trkpt>
      <trkpt lat="48.61359" lon="1.94339">
        <ele>147.8</ele>
        <time>2025-10-02T07:56:53Z</time>
      </trkpt>
      <trkpt lat="48.61357" lon="1.94353">
        <ele>147.6</ele>
        <time>2025-10-02T07:56:59Z</time>
      </trkpt>
      <trkpt lat="48.61356" lon="1.94367">
        <ele>147.3</ele>
        <time>2025-10-02T07:57:06Z</time>
      </trkpt>
      <trkpt lat="48.61353" lon="1.94382">
        <ele>146.6</ele>
        <time>2025-10-02T07:57:13Z</time>
      </trkpt>
      <trkpt lat="48.61351" lon="1.94395">
        <ele>146.2</ele>
        <time>2025-10-02T07:57:20Z</time>
      </trkpt>
      <trkpt lat="48.61348" lon="1.9441">
        <ele>146</ele>
        <time>2025-10-02T07:57:27Z</time>
      </trkpt>
      <trkpt lat="48.61344" lon="1.94424">
        <ele>145.6</ele>
        <time>2025-10-02T07:57:35Z</time>
      </trkpt>
      <trkpt lat="48.61341" lon="1.94438">
        <ele>145</ele>
        <time>2025-10-02T07:57:42Z</time>
      </trkpt>
      <trkpt lat="48.61338" lon="1.94452">
        <ele>144.5</ele>
        <time>2025-10-02T07:57:50Z</time>
      </trkpt>
      <trkpt lat="48.61335" lon="1.94465">
        <ele>144.1</ele>
        <time>2025-10-02T07:57:57Z</time>
      </trkpt>
      <trkpt lat="48.61331" lon="1.94479">
        <ele>143.9</ele>
        <time>2025-10-02T07:58:04Z</time>
      </trkpt>
      <trkpt lat="48.61328" lon="1.94494">
        <ele>143.7</ele>
        <time>2025-10-02T07:58:11Z</time>
      </trkpt>
      <trkpt lat="48.61323" lon="1.94506">
        <ele>143.3</ele>
        <time>2025-10-02T07:58:17Z</time>
      </trkpt>
      <trkpt lat="48.6132" lon="1.9452">
        <ele>143.1</ele>
        <time>2025-10-02T07:58:22Z</time>
      </trkpt>
      <trkpt lat="48.61323" lon="1.94533">
        <ele>143.3</ele>
        <time>2025-10-02T07:58:32Z</time>
      </trkpt>
      <trkpt lat="48.61333" lon="1.94539">
        <ele>144</ele>
        <time>2025-10-02T07:58:40Z</time>
      </trkpt>
      <trkpt lat="48.61341" lon="1.94546">
        <ele>144.8</ele>
        <time>2025-10-02T07:58:47Z</time>
      </trkpt>
      <trkpt lat="48.61348" lon="1.94554">
        <ele>145.6</ele>
        <time>2025-10-02T07:58:54Z</time>
      </trkpt>
      <trkpt lat="48.61355" lon="1.94564">
        <ele>146.1</ele>
        <time>2025-10-02T07:59:01Z</time>
      </trkpt>
      <trkpt lat="48.61362" lon="1.94574">
        <ele>146.4</ele>
        <time>2025-10-02T07:59:08Z</time>
      </trkpt>
      <trkpt lat="48.6137" lon="1.94582">
        <ele>146.4</ele>
        <time>2025-10-02T07:59:16Z</time>
      </trkpt>
      <trkpt lat="48.61378" lon="1.94592">
        <ele>146.3</ele>
        <time>2025-10-02T07:59:24Z</time>
      </trkpt>
      <trkpt lat="48.61386" lon="1.946">
        <ele>146.3</ele>
        <time>2025-10-02T07:59:31Z</time>
      </trkpt>
      <trkpt lat="48.61392" lon="1.9461">
        <ele>146</ele>
        <time>2025-10-02T07:59:38Z</time>
      </trkpt>
      <trkpt lat="48.61396" lon="1.94622">
        <ele>145.9</ele>
        <time>2025-10-02T07:59:46Z</time>
      </trkpt>
      <trkpt lat="48.61397" lon="1.94636">
        <ele>145.7</ele>
        <time>2025-10-02T07:59:55Z</time>
      </trkpt>
      <trkpt lat="48.61394" lon="1.94651">
        <ele>145.5</ele>
        <time>2025-10-02T08:00:02Z</time>
      </trkpt>
      <trkpt lat="48.61388" lon="1.94662">
        <ele>145.2</ele>
        <time>2025-10-02T08:00:08Z</time>
      </trkpt>
      <trkpt lat="48.61384" lon="1.94675">
        <ele>144.8</ele>
        <time>2025-10-02T08:00:15Z</time>
      </trkpt>
      <trkpt lat="48.61378" lon="1.94688">
        <ele>144.3</ele>
        <time>2025-10-02T08:00:22Z</time>
      </trkpt>
      <trkpt lat="48.61372" lon="1.947">
        <ele>143.6</ele>
        <time>2025-10-02T08:00:29Z</time>
      </trkpt>
      <trkpt lat="48.61367" lon="1.94713">
        <ele>142.7</ele>
        <time>2025-10-02T08:00:36Z</time>
      </trkpt>
      <trkpt lat="48.61361" lon="1.94726">
        <ele>141.8</ele>
        <time>2025-10-02T08:00:42Z</time>
      </trkpt>
      <trkpt lat="48.61354" lon="1.94736">
        <ele>140.4</ele>
        <time>2025-10-02T08:00:48Z</time>
      </trkpt>
      <trkpt lat="48.61348" lon="1.94749">
        <ele>139.1</ele>
        <time>2025-10-02T08:00:55Z</time>
      </trkpt>
      <trkpt lat="48.61344" lon="1.94762">
        <ele>138.1</ele>
        <time>2025-10-02T08:01:01Z</time>
      </trkpt>
      <trkpt lat="48.61338" lon="1.94774">
        <ele>136.7</ele>
        <time>2025-10-02T08:01:08Z</time>
      </trkpt>
      <trkpt lat="48.61333" lon="1.94787">
        <ele>135.6</ele>
        <time>2025-10-02T08:01:15Z</time>
      </trkpt>
      <trkpt lat="48.61329" lon="1.948">
        <ele>134.9</ele>
        <time>2025-10-02T08:01:22Z</time>
      </trkpt>
      <trkpt lat="48.61324" lon="1.94813">
        <ele>134.1</ele>
        <time>2025-10-02T08:01:30Z</time>
      </trkpt>
      <trkpt lat="48.61323" lon="1.94828">
        <ele>133.4</ele>
        <time>2025-10-02T08:01:38Z</time>
      </trkpt>
      <trkpt lat="48.61323" lon="1.94843">
        <ele>133.1</ele>
        <time>2025-10-02T08:01:45Z</time>
      </trkpt>
      <trkpt lat="48.61323" lon="1.94858">
        <ele>132.9</ele>
        <time>2025-10-02T08:01:52Z</time>
      </trkpt>
      <trkpt lat="48.61322" lon="1.94873">
        <ele>132.8</ele>
        <time>2025-10-02T08:01:59Z</time>
      </trkpt>
      <trkpt lat="48.61323" lon="1.94889">
        <ele>132.9</ele>
        <time>2025-10-02T08:02:06Z</time>
      </trkpt>
      <trkpt lat="48.61323" lon="1.94904">
        <ele>132.9</ele>
        <time>2025-10-02T08:02:13Z</time>
      </trkpt>
      <trkpt lat="48.61322" lon="1.94918">
        <ele>132.8</ele>
        <time>2025-10-02T08:02:20Z</time>
      </trkpt>
      <trkpt lat="48.6132" lon="1.94932">
        <ele>132.6</ele>
        <time>2025-10-02T08:02:27Z</time>
      </trkpt>
      <trkpt lat="48.61318" lon="1.94946">
        <ele>132.3</ele>
        <time>2025-10-02T08:02:34Z</time>
      </trkpt>
      <trkpt lat="48.61315" lon="1.9496">
        <ele>132.1</ele>
        <time>2025-10-02T08:02:40Z</time>
      </trkpt>
      <trkpt lat="48.61314" lon="1.94974">
        <ele>131.9</ele>
        <time>2025-10-02T08:02:47Z</time>
      </trkpt>
      <trkpt lat="48.61312" lon="1.94988">
        <ele>131.3</ele>
        <time>2025-10-02T08:02:54Z</time>
      </trkpt>
      <trkpt lat="48.6131" lon="1.95003">
        <ele>130.7</ele>
        <time>2025-10-02T08:03:01Z</time>
      </trkpt>
      <trkpt lat="48.61307" lon="1.95016">
        <ele>130.7</ele>
        <time>2025-10-02T08:03:07Z</time>
      </trkpt>
      <trkpt lat="48.61305" lon="1.95032">
        <ele>131</ele>
        <time>2025-10-02T08:03:14Z</time>
      </trkpt>
      <trkpt lat="48.61305" lon="1.95046">
        <ele>130.9</ele>
        <time>2025-10-02T08:03:21Z</time>
      </trkpt>
      <trkpt lat="48.61305" lon="1.95061">
        <ele>131</ele>
        <time>2025-10-02T08:03:29Z</time>
      </trkpt>
      <trkpt lat="48.61305" lon="1.95076">
        <ele>130.9</ele>
        <time>2025-10-02T08:03:37Z</time>
      </trkpt>
      <trkpt lat="48.61303" lon="1.9509">
        <ele>130.7</ele>
        <time>2025-10-02T08:03:44Z</time>
      </trkpt>
      <trkpt lat="48.61301" lon="1.95104">
        <ele>130.3</ele>
        <time>2025-10-02T08:03:51Z</time>
      </trkpt>
      <trkpt lat="48.61297" lon="1.95118">
        <ele>129.8</ele>
        <time>2025-10-02T08:03:58Z</time>
      </trkpt>
      <trkpt lat="48.61293" lon="1.95131">
        <ele>129.5</ele>
        <time>2025-10-02T08:04:04Z</time>
      </trkpt>
      <trkpt lat="48.61289" lon="1.95144">
        <ele>129.1</ele>
        <time>2025-10-02T08:04:11Z</time>
      </trkpt>
      <trkpt lat="48.61285" lon="1.95157">
        <ele>128.3</ele>
        <time>2025-10-02T08:04:18Z</time>
      </trkpt>
      <trkpt lat="48.61282" lon="1.9517">
        <ele>127.6</ele>
        <time>2025-10-02T08:04:24Z</time>
      </trkpt>
      <trkpt lat="48.61279" lon="1.95183">
        <ele>127.1</ele>
        <time>2025-10-02T08:04:31Z</time>
      </trkpt>
      <trkpt lat="48.61276" lon="1.95197">
        <ele>126.9</ele>
        <time>2025-10-02T08:04:38Z</time>
      </trkpt>
      <trkpt lat="48.61273" lon="1.95212">
        <ele>126.7</ele>
        <time>2025-10-02T08:04:45Z</time>
      </trkpt>
      <trkpt lat="48.61272" lon="1.95226">
        <ele>126.5</ele>
        <time>2025-10-02T08:04:52Z</time>
      </trkpt>
      <trkpt lat="48.61269" lon="1.95241">
        <ele>126.2</ele>
        <time>2025-10-02T08:04:59Z</time>
      </trkpt>
      <trkpt lat="48.61268" lon="1.95256">
        <ele>126</ele>
        <time>2025-10-02T08:05:05Z</time>
      </trkpt>
      <trkpt lat="48.61267" lon="1.9527">
        <ele>125.8</ele>
        <time>2025-10-02T08:05:12Z</time>
      </trkpt>
      <trkpt lat="48.61266" lon="1.95286">
        <ele>125.4</ele>
        <time>2025-10-02T08:05:19Z</time>
      </trkpt>
      <trkpt lat="48.61265" lon="1.95301">
        <ele>124.8</ele>
        <time>2025-10-02T08:05:26Z</time>
      </trkpt>
      <trkpt lat="48.61265" lon="1.95317">
        <ele>124.7</ele>
        <time>2025-10-02T08:05:33Z</time>
      </trkpt>
      <trkpt lat="48.61266" lon="1.95331">
        <ele>124.7</ele>
        <time>2025-10-02T08:05:40Z</time>
      </trkpt>
      <trkpt lat="48.61267" lon="1.95346">
        <ele>124.9</ele>
        <time>2025-10-02T08:05:47Z</time>
      </trkpt>
      <trkpt lat="48.61268" lon="1.95361">
        <ele>124.9</ele>
        <time>2025-10-02T08:05:54Z</time>
      </trkpt>
      <trkpt lat="48.61266" lon="1.95376">
        <ele>124.8</ele>
        <time>2025-10-02T08:06:00Z</time>
      </trkpt>
      <trkpt lat="48.61266" lon="1.95391">
        <ele>124.8</ele>
        <time>2025-10-02T08:06:07Z</time>
      </trkpt>
      <trkpt lat="48.61264" lon="1.95407">
        <ele>124.9</ele>
        <time>2025-10-02T08:06:14Z</time>
      </trkpt>
      <trkpt lat="48.61261" lon="1.95421">
        <ele>124.6</ele>
        <time>2025-10-02T08:06:21Z</time>
      </trkpt>
      <trkpt lat="48.61261" lon="1.95436">
        <ele>124.5</ele>
        <time>2025-10-02T08:06:28Z</time>
      </trkpt>
      <trkpt lat="48.61255" lon="1.95447">
        <ele>123.7</ele>
        <time>2025-10-02T08:06:36Z</time>
      </trkpt>
      <trkpt lat="48.61253" lon="1.95462">
        <ele>123.6</ele>
        <time>2025-10-02T08:06:45Z</time>
      </trkpt>
      <trkpt lat="48.61252" lon="1.95476">
        <ele>123.4</ele>
        <time>2025-10-02T08:06:55Z</time>
      </trkpt>
      <trkpt lat="48.6125" lon="1.9549">
        <ele>123</ele>
        <time>2025-10-02T08:07:05Z</time>
      </trkpt>
      <trkpt lat="48.61245" lon="1.95504">
        <ele>122.5</ele>
        <time>2025-10-02T08:07:13Z</time>
      </trkpt>
      <trkpt lat="48.61241" lon="1.95519">
        <ele>122</ele>
        <time>2025-10-02T08:07:20Z</time>
      </trkpt>
      <trkpt lat="48.6124" lon="1.95534">
        <ele>121.7</ele>
        <time>2025-10-02T08:07:28Z</time>
      </trkpt>
      <trkpt lat="48.61238" lon="1.95548">
        <ele>121.3</ele>
        <time>2025-10-02T08:07:34Z</time>
      </trkpt>
      <trkpt lat="48.61235" lon="1.95562">
        <ele>120.8</ele>
        <time>2025-10-02T08:07:40Z</time>
      </trkpt>
      <trkpt lat="48.61232" lon="1.95575">
        <ele>120.2</ele>
        <time>2025-10-02T08:07:47Z</time>
      </trkpt>
      <trkpt lat="48.61231" lon="1.95589">
        <ele>119.9</ele>
        <time>2025-10-02T08:07:54Z</time>
      </trkpt>
      <trkpt lat="48.6123" lon="1.95603">
        <ele>119.6</ele>
        <time>2025-10-02T08:08:01Z</time>
      </trkpt>
      <trkpt lat="48.61228" lon="1.95617">
        <ele>119.4</ele>
        <time>2025-10-02T08:08:07Z</time>
      </trkpt>
      <trkpt lat="48.61226" lon="1.95631">
        <ele>119.3</ele>
        <time>2025-10-02T08:08:13Z</time>
      </trkpt>
      <trkpt lat="48.61224" lon="1.95646">
        <ele>118.9</ele>
        <time>2025-10-02T08:08:19Z</time>
      </trkpt>
      <trkpt lat="48.61224" lon="1.95661">
        <ele>118.3</ele>
        <time>2025-10-02T08:08:26Z</time>
      </trkpt>
      <trkpt lat="48.61222" lon="1.95677">
        <ele>118</ele>
        <time>2025-10-02T08:08:32Z</time>
      </trkpt>
      <trkpt lat="48.61221" lon="1.95691">
        <ele>117.9</ele>
        <time>2025-10-02T08:08:38Z</time>
      </trkpt>
      <trkpt lat="48.61221" lon="1.95706">
        <ele>117.5</ele>
        <time>2025-10-02T08:08:45Z</time>
      </trkpt>
      <trkpt lat="48.6122" lon="1.9572">
        <ele>116.9</ele>
        <time>2025-10-02T08:08:51Z</time>
      </trkpt>
      <trkpt lat="48.6122" lon="1.95734">
        <ele>116.9</ele>
        <time>2025-10-02T08:08:58Z</time>
      </trkpt>
      <trkpt lat="48.61219" lon="1.95749">
        <ele>116.8</ele>
        <time>2025-10-02T08:09:07Z</time>
      </trkpt>
      <trkpt lat="48.61217" lon="1.95764">
        <ele>116.1</ele>
        <time>2025-10-02T08:09:17Z</time>
      </trkpt>
      <trkpt lat="48.61214" lon="1.95777">
        <ele>115.4</ele>
        <time>2025-10-02T08:09:25Z</time>
      </trkpt>
      <trkpt lat="48.61211" lon="1.95791">
        <ele>115.2</ele>
        <time>2025-10-02T08:09:32Z</time>
      </trkpt>
      <trkpt lat="48.61208" lon="1.95805">
        <ele>115</ele>
        <time>2025-10-02T08:09:39Z</time>
      </trkpt>
      <trkpt lat="48.61206" lon="1.95819">
        <ele>114.4</ele>
        <time>2025-10-02T08:09:46Z</time>
      </trkpt>
      <trkpt lat="48.61207" lon="1.95835">
        <ele>113.8</ele>
        <time>2025-10-02T08:09:53Z</time>
      </trkpt>
      <trkpt lat="48.61208" lon="1.95849">
        <ele>113.7</ele>
        <time>2025-10-02T08:09:59Z</time>
      </trkpt>
      <trkpt lat="48.6121" lon="1.95862">
        <ele>113.7</ele>
        <time>2025-10-02T08:10:04Z</time>
      </trkpt>
      <trkpt lat="48.61213" lon="1.95876">
        <ele>113.6</ele>
        <time>2025-10-02T08:10:09Z</time>
      </trkpt>
      <trkpt lat="48.61215" lon="1.9589">
        <ele>113.5</ele>
        <time>2025-10-02T08:10:15Z</time>
      </trkpt>
      <trkpt lat="48.61216" lon="1.95903">
        <ele>113.1</ele>
        <time>2025-10-02T08:10:21Z</time>
      </trkpt>
      <trkpt lat="48.61219" lon="1.95918">
        <ele>112.7</ele>
        <time>2025-10-02T08:10:28Z</time>
      </trkpt>
      <trkpt lat="48.6122" lon="1.95931">
        <ele>112.3</ele>
        <time>2025-10-02T08:10:34Z</time>
      </trkpt>
      <trkpt lat="48.61222" lon="1.95946">
        <ele>111.9</ele>
        <time>2025-10-02T08:10:41Z</time>
      </trkpt>
      <trkpt lat="48.61225" lon="1.9596">
        <ele>111.1</ele>
        <time>2025-10-02T08:10:48Z</time>
      </trkpt>
      <trkpt lat="48.6123" lon="1.95973">
        <ele>110.5</ele>
        <time>2025-10-02T08:10:55Z</time>
      </trkpt>
      <trkpt lat="48.61233" lon="1.95987">
        <ele>110.3</ele>
        <time>2025-10-02T08:11:02Z</time>
      </trkpt>
      <trkpt lat="48.61235" lon="1.96002">
        <ele>109.9</ele>
        <time>2025-10-02T08:11:09Z</time>
      </trkpt>
      <trkpt lat="48.61236" lon="1.96017">
        <ele>109.4</ele>
        <time>2025-10-02T08:11:16Z</time>
      </trkpt>
      <trkpt lat="48.61237" lon="1.96032">
        <ele>109</ele>
        <time>2025-10-02T08:11:23Z</time>
      </trkpt>
      <trkpt lat="48.61237" lon="1.96047">
        <ele>108.7</ele>
        <time>2025-10-02T08:11:31Z</time>
      </trkpt>
      <trkpt lat="48.6124" lon="1.96061">
        <ele>108.6</ele>
        <time>2025-10-02T08:11:38Z</time>
      </trkpt>
      <trkpt lat="48.61241" lon="1.96076">
        <ele>108.7</ele>
        <time>2025-10-02T08:11:45Z</time>
      </trkpt>
      <trkpt lat="48.61242" lon="1.9609">
        <ele>108.5</ele>
        <time>2025-10-02T08:11:52Z</time>
      </trkpt>
      <trkpt lat="48.6124" lon="1.96105">
        <ele>107.9</ele>
        <time>2025-10-02T08:11:59Z</time>
      </trkpt>
      <trkpt lat="48.61237" lon="1.96118">
        <ele>107.5</ele>
        <time>2025-10-02T08:12:05Z</time>
      </trkpt>
      <trkpt lat="48.61234" lon="1.96132">
        <ele>107.4</ele>
        <time>2025-10-02T08:12:11Z</time>
      </trkpt>
      <trkpt lat="48.6123" lon="1.96144">
        <ele>107.1</ele>
        <time>2025-10-02T08:12:18Z</time>
      </trkpt>
      <trkpt lat="48.61228" lon="1.96158">
        <ele>106.5</ele>
        <time>2025-10-02T08:12:28Z</time>
      </trkpt>
      <trkpt lat="48.61237" lon="1.96157">
        <ele>106.9</ele>
        <time>2025-10-02T08:12:37Z</time>
      </trkpt>
      <trkpt lat="48.61246" lon="1.96157">
        <ele>107.2</ele>
        <time>2025-10-02T08:12:51Z</time>
      </trkpt>
      <trkpt lat="48.61256" lon="1.9616">
        <ele>107.4</ele>
        <time>2025-10-02T08:13:05Z</time>
      </trkpt>
      <trkpt lat="48.61262" lon="1.96149">
        <ele>107.8</ele>
        <time>2025-10-02T08:14:53Z</time>
      </trkpt>
      <trkpt lat="48.6127" lon="1.96143">
        <ele>108</ele>
        <time>2025-10-02T08:15:07Z</time>
      </trkpt>
      <trkpt lat="48.61262" lon="1.96154">
        <ele>107.7</ele>
        <time>2025-10-02T08:15:48Z</time>
      </trkpt>
      <trkpt lat="48.61254" lon="1.96159">
        <ele>107.4</ele>
        <time>2025-10-02T08:15:57Z</time>
      </trkpt>
      <trkpt lat="48.61249" lon="1.96171">
        <ele>107</ele>
        <time>2025-10-02T08:17:27Z</time>
      </trkpt>
      <trkpt lat="48.61248" lon="1.96185">
        <ele>106.9</ele>
        <time>2025-10-02T08:17:35Z</time>
      </trkpt>
      <trkpt lat="48.61257" lon="1.96186">
        <ele>107.1</ele>
        <time>2025-10-02T08:17:43Z</time>
      </trkpt>
      <trkpt lat="48.61265" lon="1.96196">
        <ele>106.9</ele>
        <time>2025-10-02T08:17:51Z</time>
      </trkpt>
      <trkpt lat="48.61269" lon="1.9621">
        <ele>106.4</ele>
        <time>2025-10-02T08:17:58Z</time>
      </trkpt>
      <trkpt lat="48.61268" lon="1.96224">
        <ele>106</ele>
        <time>2025-10-02T08:18:05Z</time>
      </trkpt>
      <trkpt lat="48.61277" lon="1.96231">
        <ele>106</ele>
        <time>2025-10-02T08:18:13Z</time>
      </trkpt>
      <trkpt lat="48.61284" lon="1.96241">
        <ele>106</ele>
        <time>2025-10-02T08:18:21Z</time>
      </trkpt>
      <trkpt lat="48.61284" lon="1.96256">
        <ele>106</ele>
        <time>2025-10-02T08:18:28Z</time>
      </trkpt>
      <trkpt lat="48.61288" lon="1.9627">
        <ele>105.7</ele>
        <time>2025-10-02T08:18:35Z</time>
      </trkpt>
      <trkpt lat="48.61294" lon="1.96281">
        <ele>105.4</ele>
        <time>2025-10-02T08:18:42Z</time>
      </trkpt>
      <trkpt lat="48.61299" lon="1.96293">
        <ele>105.1</ele>
        <time>2025-10-02T08:18:48Z</time>
      </trkpt>
      <trkpt lat="48.61306" lon="1.96302">
        <ele>105</ele>
        <time>2025-10-02T08:18:55Z</time>
      </trkpt>
      <trkpt lat="48.61316" lon="1.96307">
        <ele>105</ele>
        <time>2025-10-02T08:19:03Z</time>
      </trkpt>
      <trkpt lat="48.61325" lon="1.96313">
        <ele>104.8</ele>
        <time>2025-10-02T08:19:11Z</time>
      </trkpt>
      <trkpt lat="48.61333" lon="1.96321">
        <ele>104.5</ele>
        <time>2025-10-02T08:19:18Z</time>
      </trkpt>
      <trkpt lat="48.61342" lon="1.96326">
        <ele>104.2</ele>
        <time>2025-10-02T08:19:25Z</time>
      </trkpt>
      <trkpt lat="48.61352" lon="1.96328">
        <ele>104.1</ele>
        <time>2025-10-02T08:19:33Z</time>
      </trkpt>
      <trkpt lat="48.61361" lon="1.96333">
        <ele>104</ele>
        <time>2025-10-02T08:19:40Z</time>
      </trkpt>
      <trkpt lat="48.6137" lon="1.96339">
        <ele>104</ele>
        <time>2025-10-02T08:19:48Z</time>
      </trkpt>
      <trkpt lat="48.61377" lon="1.96348">
        <ele>104</ele>
        <time>2025-10-02T08:19:56Z</time>
      </trkpt>
      <trkpt lat="48.61385" lon="1.96356">
        <ele>104</ele>
        <time>2025-10-02T08:20:04Z</time>
      </trkpt>
      <trkpt lat="48.61393" lon="1.96365">
        <ele>104</ele>
        <time>2025-10-02T08:20:12Z</time>
      </trkpt>
      <trkpt lat="48.61401" lon="1.96372">
        <ele>104</ele>
        <time>2025-10-02T08:20:20Z</time>
      </trkpt>
      <trkpt lat="48.61409" lon="1.96383">
        <ele>104</ele>
        <time>2025-10-02T08:20:26Z</time>
      </trkpt>
      <trkpt lat="48.61414" lon="1.96394">
        <ele>104</ele>
        <time>2025-10-02T08:20:33Z</time>
      </trkpt>
      <trkpt lat="48.6142" lon="1.96408">
        <ele>104</ele>
        <time>2025-10-02T08:20:39Z</time>
      </trkpt>
      <trkpt lat="48.61426" lon="1.96418">
        <ele>104</ele>
        <time>2025-10-02T08:20:45Z</time>
      </trkpt>
      <trkpt lat="48.61433" lon="1.96429">
        <ele>104</ele>
        <time>2025-10-02T08:20:53Z</time>
      </trkpt>
      <trkpt lat="48.61439" lon="1.96438">
        <ele>104</ele>
        <time>2025-10-02T08:21:00Z</time>
      </trkpt>
      <trkpt lat="48.61445" lon="1.96449">
        <ele>104</ele>
        <time>2025-10-02T08:21:07Z</time>
      </trkpt>
      <trkpt lat="48.6145" lon="1.96461">
        <ele>104</ele>
        <time>2025-10-02T08:21:14Z</time>
      </trkpt>
      <trkpt lat="48.61456" lon="1.96473">
        <ele>104</ele>
        <time>2025-10-02T08:21:21Z</time>
      </trkpt>
      <trkpt lat="48.61461" lon="1.96485">
        <ele>104</ele>
        <time>2025-10-02T08:21:28Z</time>
      </trkpt>
      <trkpt lat="48.61468" lon="1.96497">
        <ele>104</ele>
        <time>2025-10-02T08:21:34Z</time>
      </trkpt>
      <trkpt lat="48.61473" lon="1.96509">
        <ele>104.1</ele>
        <time>2025-10-02T08:21:40Z</time>
      </trkpt>
      <trkpt lat="48.6148" lon="1.96519">
        <ele>104.4</ele>
        <time>2025-10-02T08:21:46Z</time>
      </trkpt>
      <trkpt lat="48.61487" lon="1.9653">
        <ele>104.5</ele>
        <time>2025-10-02T08:21:53Z</time>
      </trkpt>
      <trkpt lat="48.61493" lon="1.96542">
        <ele>104.7</ele>
        <time>2025-10-02T08:22:00Z</time>
      </trkpt>
      <trkpt lat="48.61498" lon="1.96554">
        <ele>104.9</ele>
        <time>2025-10-02T08:22:06Z</time>
      </trkpt>
      <trkpt lat="48.61502" lon="1.96566">
        <ele>105.2</ele>
        <time>2025-10-02T08:22:13Z</time>
      </trkpt>
      <trkpt lat="48.61508" lon="1.96578">
        <ele>105.6</ele>
        <time>2025-10-02T08:22:20Z</time>
      </trkpt>
      <trkpt lat="48.61515" lon="1.96587">
        <ele>106</ele>
        <time>2025-10-02T08:22:27Z</time>
      </trkpt>
      <trkpt lat="48.61522" lon="1.96598">
        <ele>106.2</ele>
        <time>2025-10-02T08:22:34Z</time>
      </trkpt>
      <trkpt lat="48.61529" lon="1.96608">
        <ele>106.2</ele>
        <time>2025-10-02T08:22:41Z</time>
      </trkpt>
      <trkpt lat="48.61537" lon="1.96618">
        <ele>106.4</ele>
        <time>2025-10-02T08:22:48Z</time>
      </trkpt>
      <trkpt lat="48.61542" lon="1.96629">
        <ele>106.4</ele>
        <time>2025-10-02T08:22:55Z</time>
      </trkpt>
      <trkpt lat="48.61548" lon="1.96639">
        <ele>106.5</ele>
        <time>2025-10-02T08:23:02Z</time>
      </trkpt>
      <trkpt lat="48.61556" lon="1.96649">
        <ele>107</ele>
        <time>2025-10-02T08:23:09Z</time>
      </trkpt>
      <trkpt lat="48.61559" lon="1.96662">
        <ele>107.2</ele>
        <time>2025-10-02T08:23:16Z</time>
      </trkpt>
      <trkpt lat="48.61569" lon="1.9667">
        <ele>107.4</ele>
        <time>2025-10-02T08:23:24Z</time>
      </trkpt>
      <trkpt lat="48.61576" lon="1.96678">
        <ele>107.6</ele>
        <time>2025-10-02T08:23:31Z</time>
      </trkpt>
      <trkpt lat="48.61583" lon="1.96688">
        <ele>108</ele>
        <time>2025-10-02T08:23:38Z</time>
      </trkpt>
      <trkpt lat="48.6159" lon="1.96698">
        <ele>108.1</ele>
        <time>2025-10-02T08:23:45Z</time>
      </trkpt>
      <trkpt lat="48.61597" lon="1.96708">
        <ele>108.2</ele>
        <time>2025-10-02T08:23:53Z</time>
      </trkpt>
      <trkpt lat="48.61603" lon="1.96719">
        <ele>108.5</ele>
        <time>2025-10-02T08:24:00Z</time>
      </trkpt>
      <trkpt lat="48.6161" lon="1.9673">
        <ele>108.7</ele>
        <time>2025-10-02T08:24:07Z</time>
      </trkpt>
      <trkpt lat="48.61618" lon="1.9674">
        <ele>108.8</ele>
        <time>2025-10-02T08:24:14Z</time>
      </trkpt>
      <trkpt lat="48.61625" lon="1.96752">
        <ele>109</ele>
        <time>2025-10-02T08:24:22Z</time>
      </trkpt>
      <trkpt lat="48.61632" lon="1.9676">
        <ele>109.5</ele>
        <time>2025-10-02T08:24:29Z</time>
      </trkpt>
      <trkpt lat="48.61639" lon="1.96771">
        <ele>110</ele>
        <time>2025-10-02T08:24:37Z</time>
      </trkpt>
      <trkpt lat="48.61647" lon="1.96781">
        <ele>110.5</ele>
        <time>2025-10-02T08:24:45Z</time>
      </trkpt>
      <trkpt lat="48.61654" lon="1.9679">
        <ele>110.8</ele>
        <time>2025-10-02T08:24:52Z</time>
      </trkpt>
      <trkpt lat="48.61662" lon="1.96798">
        <ele>111.1</ele>
        <time>2025-10-02T08:24:59Z</time>
      </trkpt>
      <trkpt lat="48.61671" lon="1.96806">
        <ele>111.3</ele>
        <time>2025-10-02T08:25:06Z</time>
      </trkpt>
      <trkpt lat="48.61678" lon="1.96815">
        <ele>111.8</ele>
        <time>2025-10-02T08:25:13Z</time>
      </trkpt>
      <trkpt lat="48.61682" lon="1.96827">
        <ele>112.1</ele>
        <time>2025-10-02T08:25:21Z</time>
      </trkpt>
      <trkpt lat="48.61687" lon="1.96841">
        <ele>112.5</ele>
        <time>2025-10-02T08:25:29Z</time>
      </trkpt>
      <trkpt lat="48.61693" lon="1.96853">
        <ele>112.9</ele>
        <time>2025-10-02T08:25:36Z</time>
      </trkpt>
      <trkpt lat="48.61698" lon="1.96865">
        <ele>113</ele>
        <time>2025-10-02T08:25:43Z</time>
      </trkpt>
      <trkpt lat="48.61704" lon="1.96876">
        <ele>112.8</ele>
        <time>2025-10-02T08:25:50Z</time>
      </trkpt>
      <trkpt lat="48.6171" lon="1.96888">
        <ele>112.6</ele>
        <time>2025-10-02T08:25:57Z</time>
      </trkpt>
      <trkpt lat="48.61715" lon="1.96899">
        <ele>112.7</ele>
        <time>2025-10-02T08:26:04Z</time>
      </trkpt>
      <trkpt lat="48.61723" lon="1.96909">
        <ele>113</ele>
        <time>2025-10-02T08:26:11Z</time>
      </trkpt>
      <trkpt lat="48.61729" lon="1.9692">
        <ele>113.1</ele>
        <time>2025-10-02T08:26:18Z</time>
      </trkpt>
      <trkpt lat="48.61734" lon="1.96933">
        <ele>112.8</ele>
        <time>2025-10-02T08:26:26Z</time>
      </trkpt>
      <trkpt lat="48.61741" lon="1.96945">
        <ele>112.7</ele>
        <time>2025-10-02T08:26:33Z</time>
      </trkpt>
      <trkpt lat="48.61747" lon="1.96955">
        <ele>112.5</ele>
        <time>2025-10-02T08:26:40Z</time>
      </trkpt>
      <trkpt lat="48.61756" lon="1.96961">
        <ele>112.6</ele>
        <time>2025-10-02T08:26:47Z</time>
      </trkpt>
      <trkpt lat="48.61764" lon="1.96968">
        <ele>112.7</ele>
        <time>2025-10-02T08:26:54Z</time>
      </trkpt>
      <trkpt lat="48.61772" lon="1.96976">
        <ele>112.7</ele>
        <time>2025-10-02T08:27:01Z</time>
      </trkpt>
      <trkpt lat="48.6178" lon="1.96984">
        <ele>112.6</ele>
        <time>2025-10-02T08:27:07Z</time>
      </trkpt>
      <trkpt lat="48.61788" lon="1.96994">
        <ele>112.6</ele>
        <time>2025-10-02T08:27:15Z</time>
      </trkpt>
      <trkpt lat="48.61796" lon="1.97003">
        <ele>112.6</ele>
        <time>2025-10-02T08:27:22Z</time>
      </trkpt>
      <trkpt lat="48.61804" lon="1.97012">
        <ele>112.6</ele>
        <time>2025-10-02T08:27:29Z</time>
      </trkpt>
      <trkpt lat="48.61813" lon="1.9702">
        <ele>112.6</ele>
        <time>2025-10-02T08:27:36Z</time>
      </trkpt>
      <trkpt lat="48.61822" lon="1.97026">
        <ele>112.7</ele>
        <time>2025-10-02T08:27:43Z</time>
      </trkpt>
      <trkpt lat="48.6183" lon="1.97034">
        <ele>112.9</ele>
        <time>2025-10-02T08:27:50Z</time>
      </trkpt>
      <trkpt lat="48.61838" lon="1.9704">
        <ele>113.2</ele>
        <time>2025-10-02T08:27:56Z</time>
      </trkpt>
      <trkpt lat="48.61847" lon="1.97045">
        <ele>113.5</ele>
        <time>2025-10-02T08:28:03Z</time>
      </trkpt>
      <trkpt lat="48.61856" lon="1.97052">
        <ele>113.8</ele>
        <time>2025-10-02T08:28:11Z</time>
      </trkpt>
      <trkpt lat="48.61866" lon="1.97056">
        <ele>114</ele>
        <time>2025-10-02T08:28:18Z</time>
      </trkpt>
      <trkpt lat="48.61874" lon="1.97062">
        <ele>113.8</ele>
        <time>2025-10-02T08:28:25Z</time>
      </trkpt>
      <trkpt lat="48.61884" lon="1.97066">
        <ele>113.6</ele>
        <time>2025-10-02T08:28:32Z</time>
      </trkpt>
      <trkpt lat="48.61892" lon="1.97072">
        <ele>113.5</ele>
        <time>2025-10-02T08:28:39Z</time>
      </trkpt>
      <trkpt lat="48.61901" lon="1.97077">
        <ele>113.6</ele>
        <time>2025-10-02T08:28:46Z</time>
      </trkpt>
      <trkpt lat="48.6191" lon="1.97081">
        <ele>113.9</ele>
        <time>2025-10-02T08:28:53Z</time>
      </trkpt>
      <trkpt lat="48.6192" lon="1.97085">
        <ele>113.9</ele>
        <time>2025-10-02T08:29:00Z</time>
      </trkpt>
      <trkpt lat="48.61929" lon="1.97085">
        <ele>113.9</ele>
        <time>2025-10-02T08:29:12Z</time>
      </trkpt>
      <trkpt lat="48.61938" lon="1.97084">
        <ele>113.9</ele>
        <time>2025-10-02T08:29:20Z</time>
      </trkpt>
      <trkpt lat="48.61947" lon="1.97081">
        <ele>114.1</ele>
        <time>2025-10-02T08:29:28Z</time>
      </trkpt>
      <trkpt lat="48.61956" lon="1.97079">
        <ele>114.2</ele>
        <time>2025-10-02T08:29:35Z</time>
      </trkpt>
      <trkpt lat="48.61965" lon="1.97076">
        <ele>114.5</ele>
        <time>2025-10-02T08:29:42Z</time>
      </trkpt>
      <trkpt lat="48.61974" lon="1.97073">
        <ele>114.8</ele>
        <time>2025-10-02T08:29:49Z</time>
      </trkpt>
      <trkpt lat="48.61983" lon="1.97071">
        <ele>115.1</ele>
        <time>2025-10-02T08:29:55Z</time>
      </trkpt>
      <trkpt lat="48.61993" lon="1.9707">
        <ele>115.3</ele>
        <time>2025-10-02T08:30:02Z</time>
      </trkpt>
      <trkpt lat="48.62002" lon="1.97066">
        <ele>115.7</ele>
        <time>2025-10-02T08:30:09Z</time>
      </trkpt>
      <trkpt lat="48.62011" lon="1.97063">
        <ele>116.1</ele>
        <time>2025-10-02T08:30:17Z</time>
      </trkpt>
      <trkpt lat="48.62021" lon="1.97061">
        <ele>116.5</ele>
        <time>2025-10-02T08:30:24Z</time>
      </trkpt>
      <trkpt lat="48.6203" lon="1.9706">
        <ele>117</ele>
        <time>2025-10-02T08:30:31Z</time>
      </trkpt>
      <trkpt lat="48.62039" lon="1.97059">
        <ele>117.8</ele>
        <time>2025-10-02T08:30:38Z</time>
      </trkpt>
      <trkpt lat="48.62049" lon="1.97052">
        <ele>118.4</ele>
        <time>2025-10-02T08:30:46Z</time>
      </trkpt>
      <trkpt lat="48.62055" lon="1.97043">
        <ele>118.5</ele>
        <time>2025-10-02T08:30:53Z</time>
      </trkpt>
      <trkpt lat="48.62063" lon="1.97034">
        <ele>119.2</ele>
        <time>2025-10-02T08:31:00Z</time>
      </trkpt>
      <trkpt lat="48.6207" lon="1.97025">
        <ele>119.3</ele>
        <time>2025-10-02T08:31:07Z</time>
      </trkpt>
      <trkpt lat="48.62078" lon="1.97016">
        <ele>119.3</ele>
        <time>2025-10-02T08:31:14Z</time>
      </trkpt>
      <trkpt lat="48.62085" lon="1.97007">
        <ele>119</ele>
        <time>2025-10-02T08:31:21Z</time>
      </trkpt>
      <trkpt lat="48.62092" lon="1.96999">
        <ele>119.2</ele>
        <time>2025-10-02T08:31:28Z</time>
      </trkpt>
      <trkpt lat="48.62101" lon="1.96995">
        <ele>120.2</ele>
        <time>2025-10-02T08:31:35Z</time>
      </trkpt>
      <trkpt lat="48.6211" lon="1.96991">
        <ele>120.9</ele>
        <time>2025-10-02T08:31:42Z</time>
      </trkpt>
      <trkpt lat="48.62118" lon="1.96986">
        <ele>120.9</ele>
        <time>2025-10-02T08:31:49Z</time>
      </trkpt>
      <trkpt lat="48.62128" lon="1.96984">
        <ele>121.1</ele>
        <time>2025-10-02T08:31:56Z</time>
      </trkpt>
      <trkpt lat="48.62137" lon="1.96983">
        <ele>121.4</ele>
        <time>2025-10-02T08:32:03Z</time>
      </trkpt>
      <trkpt lat="48.62147" lon="1.96984">
        <ele>122</ele>
        <time>2025-10-02T08:32:10Z</time>
      </trkpt>
      <trkpt lat="48.62156" lon="1.96985">
        <ele>122.5</ele>
        <time>2025-10-02T08:32:17Z</time>
      </trkpt>
      <trkpt lat="48.62166" lon="1.96984">
        <ele>122.7</ele>
        <time>2025-10-02T08:32:24Z</time>
      </trkpt>
      <trkpt lat="48.62175" lon="1.96986">
        <ele>123.2</ele>
        <time>2025-10-02T08:32:30Z</time>
      </trkpt>
      <trkpt lat="48.62184" lon="1.96989">
        <ele>123.7</ele>
        <time>2025-10-02T08:32:37Z</time>
      </trkpt>
      <trkpt lat="48.62193" lon="1.96994">
        <ele>124.4</ele>
        <time>2025-10-02T08:32:44Z</time>
      </trkpt>
      <trkpt lat="48.62202" lon="1.96999">
        <ele>124.6</ele>
        <time>2025-10-02T08:32:51Z</time>
      </trkpt>
      <trkpt lat="48.62211" lon="1.97003">
        <ele>124.7</ele>
        <time>2025-10-02T08:32:58Z</time>
      </trkpt>
      <trkpt lat="48.6222" lon="1.97009">
        <ele>124.8</ele>
        <time>2025-10-02T08:33:07Z</time>
      </trkpt>
      <trkpt lat="48.62229" lon="1.97013">
        <ele>125.1</ele>
        <time>2025-10-02T08:33:18Z</time>
      </trkpt>
      <trkpt lat="48.62238" lon="1.97018">
        <ele>125.5</ele>
        <time>2025-10-02T08:33:28Z</time>
      </trkpt>
      <trkpt lat="48.62245" lon="1.97028">
        <ele>126</ele>
        <time>2025-10-02T08:33:37Z</time>
      </trkpt>
      <trkpt lat="48.6225" lon="1.97041">
        <ele>126.5</ele>
        <time>2025-10-02T08:33:46Z</time>
      </trkpt>
      <trkpt lat="48.62255" lon="1.97053">
        <ele>127.4</ele>
        <time>2025-10-02T08:33:54Z</time>
      </trkpt>
      <trkpt lat="48.62258" lon="1.97067">
        <ele>129.2</ele>
        <time>2025-10-02T08:34:02Z</time>
      </trkpt>
      <trkpt lat="48.62265" lon="1.97077">
        <ele>131.3</ele>
        <time>2025-10-02T08:34:11Z</time>
      </trkpt>
      <trkpt lat="48.62272" lon="1.97086">
        <ele>133.4</ele>
        <time>2025-10-02T08:34:21Z</time>
      </trkpt>
      <trkpt lat="48.6228" lon="1.97094">
        <ele>135</ele>
        <time>2025-10-02T08:34:32Z</time>
      </trkpt>
      <trkpt lat="48.62289" lon="1.97101">
        <ele>136.3</ele>
        <time>2025-10-02T08:34:44Z</time>
      </trkpt>
      <trkpt lat="48.62298" lon="1.97104">
        <ele>137.5</ele>
        <time>2025-10-02T08:34:56Z</time>
      </trkpt>
      <trkpt lat="48.62308" lon="1.97106">
        <ele>138.5</ele>
        <time>2025-10-02T08:35:05Z</time>
      </trkpt>
      <trkpt lat="48.62317" lon="1.97106">
        <ele>139</ele>
        <time>2025-10-02T08:35:13Z</time>
      </trkpt>
      <trkpt lat="48.62327" lon="1.97109">
        <ele>139.6</ele>
        <time>2025-10-02T08:35:20Z</time>
      </trkpt>
      <trkpt lat="48.62337" lon="1.97112">
        <ele>140.1</ele>
        <time>2025-10-02T08:35:28Z</time>
      </trkpt>
      <trkpt lat="48.62346" lon="1.97112">
        <ele>140.5</ele>
        <time>2025-10-02T08:35:37Z</time>
      </trkpt>
      <trkpt lat="48.62355" lon="1.97107">
        <ele>140.6</ele>
        <time>2025-10-02T08:36:00Z</time>
      </trkpt>
      <trkpt lat="48.62364" lon="1.97108">
        <ele>140.9</ele>
        <time>2025-10-02T08:36:11Z</time>
      </trkpt>
      <trkpt lat="48.6236" lon="1.97122">
        <ele>141</ele>
        <time>2025-10-02T08:36:23Z</time>
      </trkpt>
      <trkpt lat="48.62351" lon="1.97127">
        <ele>140.6</ele>
        <time>2025-10-02T08:36:43Z</time>
      </trkpt>
      <trkpt lat="48.62342" lon="1.97134">
        <ele>140.3</ele>
        <time>2025-10-02T08:36:50Z</time>
      </trkpt>
      <trkpt lat="48.62333" lon="1.97141">
        <ele>140</ele>
        <time>2025-10-02T08:36:57Z</time>
      </trkpt>
      <trkpt lat="48.62324" lon="1.97147">
        <ele>139.7</ele>
        <time>2025-10-02T08:37:08Z</time>
      </trkpt>
      <trkpt lat="48.62317" lon="1.97157">
        <ele>139.4</ele>
        <time>2025-10-02T08:37:16Z</time>
      </trkpt>
      <trkpt lat="48.6231" lon="1.97167">
        <ele>139.1</ele>
        <time>2025-10-02T08:37:24Z</time>
      </trkpt>
      <trkpt lat="48.62302" lon="1.97177">
        <ele>138.3</ele>
        <time>2025-10-02T08:37:32Z</time>
      </trkpt>
      <trkpt lat="48.62294" lon="1.97187">
        <ele>137.4</ele>
        <time>2025-10-02T08:37:40Z</time>
      </trkpt>
      <trkpt lat="48.62285" lon="1.97196">
        <ele>136.5</ele>
        <time>2025-10-02T08:37:47Z</time>
      </trkpt>
      <trkpt lat="48.62277" lon="1.97206">
        <ele>135.6</ele>
        <time>2025-10-02T08:37:54Z</time>
      </trkpt>
      <trkpt lat="48.62269" lon="1.97215">
        <ele>134.9</ele>
        <time>2025-10-02T08:38:01Z</time>
      </trkpt>
      <trkpt lat="48.62261" lon="1.97224">
        <ele>134.3</ele>
        <time>2025-10-02T08:38:08Z</time>
      </trkpt>
      <trkpt lat="48.62253" lon="1.97233">
        <ele>133.7</ele>
        <time>2025-10-02T08:38:14Z</time>
      </trkpt>
      <trkpt lat="48.62245" lon="1.9724">
        <ele>133.2</ele>
        <time>2025-10-02T08:38:21Z</time>
      </trkpt>
      <trkpt lat="48.62237" lon="1.97249">
        <ele>132.6</ele>
        <time>2025-10-02T08:38:28Z</time>
      </trkpt>
      <trkpt lat="48.62229" lon="1.97257">
        <ele>132</ele>
        <time>2025-10-02T08:38:35Z</time>
      </trkpt>
      <trkpt lat="48.62222" lon="1.97266">
        <ele>131.4</ele>
        <time>2025-10-02T08:38:42Z</time>
      </trkpt>
      <trkpt lat="48.62214" lon="1.97274">
        <ele>130.8</ele>
        <time>2025-10-02T08:38:48Z</time>
      </trkpt>
      <trkpt lat="48.62206" lon="1.97283">
        <ele>130.2</ele>
        <time>2025-10-02T08:38:55Z</time>
      </trkpt>
      <trkpt lat="48.62199" lon="1.97293">
        <ele>129.6</ele>
        <time>2025-10-02T08:39:02Z</time>
      </trkpt>
      <trkpt lat="48.6219" lon="1.97302">
        <ele>129.1</ele>
        <time>2025-10-02T08:39:09Z</time>
      </trkpt>
      <trkpt lat="48.62183" lon="1.97311">
        <ele>128.8</ele>
        <time>2025-10-02T08:39:15Z</time>
      </trkpt>
      <trkpt lat="48.62175" lon="1.9732">
        <ele>128.5</ele>
        <time>2025-10-02T08:39:21Z</time>
      </trkpt>
      <trkpt lat="48.62167" lon="1.97329">
        <ele>128.1</ele>
        <time>2025-10-02T08:39:29Z</time>
      </trkpt>
      <trkpt lat="48.62161" lon="1.97339">
        <ele>127.8</ele>
        <time>2025-10-02T08:39:35Z</time>
      </trkpt>
      <trkpt lat="48.62154" lon="1.9735">
        <ele>127.4</ele>
        <time>2025-10-02T08:39:42Z</time>
      </trkpt>
      <trkpt lat="48.62148" lon="1.97362">
        <ele>127</ele>
        <time>2025-10-02T08:39:50Z</time>
      </trkpt>
      <trkpt lat="48.62143" lon="1.97375">
        <ele>126.5</ele>
        <time>2025-10-02T08:39:58Z</time>
      </trkpt>
      <trkpt lat="48.62138" lon="1.97387">
        <ele>126</ele>
        <time>2025-10-02T08:40:05Z</time>
      </trkpt>
      <trkpt lat="48.62133" lon="1.97402">
        <ele>125.4</ele>
        <time>2025-10-02T08:40:12Z</time>
      </trkpt>
      <trkpt lat="48.62129" lon="1.97415">
        <ele>125</ele>
        <time>2025-10-02T08:40:17Z</time>
      </trkpt>
      <trkpt lat="48.62123" lon="1.97427">
        <ele>125</ele>
        <time>2025-10-02T08:40:27Z</time>
      </trkpt>
      <trkpt lat="48.62114" lon="1.97423">
        <ele>125</ele>
        <time>2025-10-02T08:40:45Z</time>
      </trkpt>
      <trkpt lat="48.6211" lon="1.9741">
        <ele>125</ele>
        <time>2025-10-02T08:41:11Z</time>
      </trkpt>
      <trkpt lat="48.62104" lon="1.97398">
        <ele>124.7</ele>
        <time>2025-10-02T08:41:19Z</time>
      </trkpt>
      <trkpt lat="48.62098" lon="1.97387">
        <ele>124.1</ele>
        <time>2025-10-02T08:41:26Z</time>
      </trkpt>
      <trkpt lat="48.62093" lon="1.97375">
        <ele>123.5</ele>
        <time>2025-10-02T08:41:32Z</time>
      </trkpt>
      <trkpt lat="48.62085" lon="1.97365">
        <ele>122.3</ele>
        <time>2025-10-02T08:41:38Z</time>
      </trkpt>
      <trkpt lat="48.62078" lon="1.97354">
        <ele>122.1</ele>
        <time>2025-10-02T08:41:45Z</time>
      </trkpt>
      <trkpt lat="48.62072" lon="1.97343">
        <ele>121.9</ele>
        <time>2025-10-02T08:41:52Z</time>
      </trkpt>
      <trkpt lat="48.62067" lon="1.97331">
        <ele>121.2</ele>
        <time>2025-10-02T08:41:59Z</time>
      </trkpt>
      <trkpt lat="48.62062" lon="1.97319">
        <ele>120.4</ele>
        <time>2025-10-02T08:42:06Z</time>
      </trkpt>
      <trkpt lat="48.62056" lon="1.97308">
        <ele>119.1</ele>
        <time>2025-10-02T08:42:13Z</time>
      </trkpt>
      <trkpt lat="48.62049" lon="1.97297">
        <ele>118.6</ele>
        <time>2025-10-02T08:42:20Z</time>
      </trkpt>
      <trkpt lat="48.62042" lon="1.97286">
        <ele>117.8</ele>
        <time>2025-10-02T08:42:27Z</time>
      </trkpt>
      <trkpt lat="48.62037" lon="1.97274">
        <ele>117</ele>
        <time>2025-10-02T08:42:33Z</time>
      </trkpt>
      <trkpt lat="48.62032" lon="1.97262">
        <ele>116</ele>
        <time>2025-10-02T08:42:40Z</time>
      </trkpt>
      <trkpt lat="48.62025" lon="1.97251">
        <ele>115</ele>
        <time>2025-10-02T08:42:47Z</time>
      </trkpt>
      <trkpt lat="48.62019" lon="1.97239">
        <ele>114.6</ele>
        <time>2025-10-02T08:42:54Z</time>
      </trkpt>
      <trkpt lat="48.62013" lon="1.97226">
        <ele>114</ele>
        <time>2025-10-02T08:43:01Z</time>
      </trkpt>
      <trkpt lat="48.62008" lon="1.97215">
        <ele>113.3</ele>
        <time>2025-10-02T08:43:07Z</time>
      </trkpt>
      <trkpt lat="48.62001" lon="1.97204">
        <ele>112.4</ele>
        <time>2025-10-02T08:43:14Z</time>
      </trkpt>
      <trkpt lat="48.61996" lon="1.97192">
        <ele>111.9</ele>
        <time>2025-10-02T08:43:20Z</time>
      </trkpt>
      <trkpt lat="48.61991" lon="1.9718">
        <ele>111.7</ele>
        <time>2025-10-02T08:43:26Z</time>
      </trkpt>
      <trkpt lat="48.61985" lon="1.97168">
        <ele>111.4</ele>
        <time>2025-10-02T08:43:33Z</time>
      </trkpt>
      <trkpt lat="48.61979" lon="1.97157">
        <ele>111.5</ele>
        <time>2025-10-02T08:43:39Z</time>
      </trkpt>
      <trkpt lat="48.61973" lon="1.97144">
        <ele>111.8</ele>
        <time>2025-10-02T08:43:46Z</time>
      </trkpt>
      <trkpt lat="48.61965" lon="1.97135">
        <ele>111.9</ele>
        <time>2025-10-02T08:43:53Z</time>
      </trkpt>
      <trkpt lat="48.61956" lon="1.97129">
        <ele>111.8</ele>
        <time>2025-10-02T08:44:00Z</time>
      </trkpt>
      <trkpt lat="48.61948" lon="1.97119">
        <ele>111.8</ele>
        <time>2025-10-02T08:44:07Z</time>
      </trkpt>
      <trkpt lat="48.6194" lon="1.9711">
        <ele>112.1</ele>
        <time>2025-10-02T08:44:14Z</time>
      </trkpt>
      <trkpt lat="48.61931" lon="1.97102">
        <ele>112.7</ele>
        <time>2025-10-02T08:44:21Z</time>
      </trkpt>
      <trkpt lat="48.61923" lon="1.97096">
        <ele>113.1</ele>
        <time>2025-10-02T08:44:28Z</time>
      </trkpt>
      <trkpt lat="48.61914" lon="1.9709">
        <ele>113.5</ele>
        <time>2025-10-02T08:44:34Z</time>
      </trkpt>
      <trkpt lat="48.61905" lon="1.97086">
        <ele>113.5</ele>
        <time>2025-10-02T08:44:42Z</time>
      </trkpt>
      <trkpt lat="48.61897" lon="1.97079">
        <ele>113.4</ele>
        <time>2025-10-02T08:44:49Z</time>
      </trkpt>
      <trkpt lat="48.61887" lon="1.97077">
        <ele>113.2</ele>
        <time>2025-10-02T08:44:56Z</time>
      </trkpt>
      <trkpt lat="48.61878" lon="1.97071">
        <ele>113.5</ele>
        <time>2025-10-02T08:45:03Z</time>
      </trkpt>
      <trkpt lat="48.61871" lon="1.97063">
        <ele>113.7</ele>
        <time>2025-10-02T08:45:10Z</time>
      </trkpt>
      <trkpt lat="48.61861" lon="1.97062">
        <ele>113.8</ele>
        <time>2025-10-02T08:45:18Z</time>
      </trkpt>
      <trkpt lat="48.61852" lon="1.97057">
        <ele>113.6</ele>
        <time>2025-10-02T08:45:25Z</time>
      </trkpt>
      <trkpt lat="48.61844" lon="1.97051">
        <ele>113.4</ele>
        <time>2025-10-02T08:45:32Z</time>
      </trkpt>
      <trkpt lat="48.61835" lon="1.97045">
        <ele>113.1</ele>
        <time>2025-10-02T08:45:39Z</time>
      </trkpt>
      <trkpt lat="48.61826" lon="1.97038">
        <ele>112.7</ele>
        <time>2025-10-02T08:45:46Z</time>
      </trkpt>
      <trkpt lat="48.61817" lon="1.97031">
        <ele>112.4</ele>
        <time>2025-10-02T08:45:53Z</time>
      </trkpt>
      <trkpt lat="48.61808" lon="1.97023">
        <ele>112.3</ele>
        <time>2025-10-02T08:46:00Z</time>
      </trkpt>
      <trkpt lat="48.618" lon="1.97016">
        <ele>112.3</ele>
        <time>2025-10-02T08:46:07Z</time>
      </trkpt>
      <trkpt lat="48.61791" lon="1.97013">
        <ele>112.3</ele>
        <time>2025-10-02T08:46:20Z</time>
      </trkpt>
      <trkpt lat="48.61781" lon="1.97011">
        <ele>112.1</ele>
        <time>2025-10-02T08:46:28Z</time>
      </trkpt>
      <trkpt lat="48.61771" lon="1.9701">
        <ele>111.8</ele>
        <time>2025-10-02T08:46:34Z</time>
      </trkpt>
      <trkpt lat="48.61762" lon="1.97014">
        <ele>111.4</ele>
        <time>2025-10-02T08:46:39Z</time>
      </trkpt>
      <trkpt lat="48.61752" lon="1.97013">
        <ele>111.1</ele>
        <time>2025-10-02T08:46:46Z</time>
      </trkpt>
      <trkpt lat="48.61742" lon="1.97012">
        <ele>110.6</ele>
        <time>2025-10-02T08:46:53Z</time>
      </trkpt>
      <trkpt lat="48.61733" lon="1.97011">
        <ele>110.1</ele>
        <time>2025-10-02T08:46:59Z</time>
      </trkpt>
      <trkpt lat="48.61723" lon="1.97009">
        <ele>109.7</ele>
        <time>2025-10-02T08:47:05Z</time>
      </trkpt>
      <trkpt lat="48.61714" lon="1.97008">
        <ele>109.4</ele>
        <time>2025-10-02T08:47:11Z</time>
      </trkpt>
      <trkpt lat="48.61704" lon="1.97002">
        <ele>109.3</ele>
        <time>2025-10-02T08:47:18Z</time>
      </trkpt>
      <trkpt lat="48.61695" lon="1.96998">
        <ele>109.1</ele>
        <time>2025-10-02T08:47:24Z</time>
      </trkpt>
      <trkpt lat="48.61686" lon="1.96992">
        <ele>109</ele>
        <time>2025-10-02T08:47:32Z</time>
      </trkpt>
      <trkpt lat="48.61676" lon="1.96987">
        <ele>108.8</ele>
        <time>2025-10-02T08:47:39Z</time>
      </trkpt>
      <trkpt lat="48.61666" lon="1.96984">
        <ele>108.5</ele>
        <time>2025-10-02T08:47:46Z</time>
      </trkpt>
      <trkpt lat="48.61656" lon="1.96982">
        <ele>108.3</ele>
        <time>2025-10-02T08:47:53Z</time>
      </trkpt>
      <trkpt lat="48.61646" lon="1.96982">
        <ele>107.9</ele>
        <time>2025-10-02T08:48:00Z</time>
      </trkpt>
      <trkpt lat="48.61637" lon="1.96983">
        <ele>107.6</ele>
        <time>2025-10-02T08:48:06Z</time>
      </trkpt>
      <trkpt lat="48.61628" lon="1.96983">
        <ele>107.2</ele>
        <time>2025-10-02T08:48:12Z</time>
      </trkpt>
      <trkpt lat="48.61617" lon="1.96983">
        <ele>106.8</ele>
        <time>2025-10-02T08:48:19Z</time>
      </trkpt>
      <trkpt lat="48.61608" lon="1.96983">
        <ele>106.4</ele>
        <time>2025-10-02T08:48:25Z</time>
      </trkpt>
      <trkpt lat="48.61598" lon="1.96983">
        <ele>105.9</ele>
        <time>2025-10-02T08:48:31Z</time>
      </trkpt>
      <trkpt lat="48.61589" lon="1.96984">
        <ele>105.3</ele>
        <time>2025-10-02T08:48:37Z</time>
      </trkpt>
      <trkpt lat="48.61579" lon="1.96984">
        <ele>104.8</ele>
        <time>2025-10-02T08:48:44Z</time>
      </trkpt>
      <trkpt lat="48.6157" lon="1.96984">
        <ele>104.3</ele>
        <time>2025-10-02T08:48:51Z</time>
      </trkpt>
      <trkpt lat="48.6156" lon="1.96987">
        <ele>103.7</ele>
        <time>2025-10-02T08:48:59Z</time>
      </trkpt>
      <trkpt lat="48.6155" lon="1.96989">
        <ele>103.2</ele>
        <time>2025-10-02T08:49:05Z</time>
      </trkpt>
      <trkpt lat="48.61541" lon="1.96989">
        <ele>102.9</ele>
        <time>2025-10-02T08:49:11Z</time>
      </trkpt>
      <trkpt lat="48.61532" lon="1.96992">
        <ele>102.4</ele>
        <time>2025-10-02T08:49:17Z</time>
      </trkpt>
      <trkpt lat="48.61522" lon="1.96997">
        <ele>102.1</ele>
        <time>2025-10-02T08:49:24Z</time>
      </trkpt>
      <trkpt lat="48.61513" lon="1.97001">
        <ele>102</ele>
        <time>2025-10-02T08:49:31Z</time>
      </trkpt>
      <trkpt lat="48.61504" lon="1.97006">
        <ele>102</ele>
        <time>2025-10-02T08:49:38Z</time>
      </trkpt>
      <trkpt lat="48.61496" lon="1.97014">
        <ele>102</ele>
        <time>2025-10-02T08:49:45Z</time>
      </trkpt>
      <trkpt lat="48.61487" lon="1.9702">
        <ele>102</ele>
        <time>2025-10-02T08:49:52Z</time>
      </trkpt>
      <trkpt lat="48.61479" lon="1.97028">
        <ele>102</ele>
        <time>2025-10-02T08:49:59Z</time>
      </trkpt>
      <trkpt lat="48.61472" lon="1.97037">
        <ele>102</ele>
        <time>2025-10-02T08:50:06Z</time>
      </trkpt>
      <trkpt lat="48.61466" lon="1.97048">
        <ele>102</ele>
        <time>2025-10-02T08:50:12Z</time>
      </trkpt>
      <trkpt lat="48.61458" lon="1.97056">
        <ele>102</ele>
        <time>2025-10-02T08:50:18Z</time>
      </trkpt>
      <trkpt lat="48.61452" lon="1.97066">
        <ele>102</ele>
        <time>2025-10-02T08:50:24Z</time>
      </trkpt>
      <trkpt lat="48.61446" lon="1.97077">
        <ele>102</ele>
        <time>2025-10-02T08:50:31Z</time>
      </trkpt>
      <trkpt lat="48.61439" lon="1.97087">
        <ele>101.7</ele>
        <time>2025-10-02T08:50:37Z</time>
      </trkpt>
      <trkpt lat="48.61432" lon="1.97096">
        <ele>101.3</ele>
        <time>2025-10-02T08:50:44Z</time>
      </trkpt>
      <trkpt lat="48.61426" lon="1.97107">
        <ele>101.1</ele>
        <time>2025-10-02T08:50:50Z</time>
      </trkpt>
      <trkpt lat="48.61419" lon="1.97115">
        <ele>101</ele>
        <time>2025-10-02T08:50:56Z</time>
      </trkpt>
      <trkpt lat="48.61412" lon="1.97123">
        <ele>101</ele>
        <time>2025-10-02T08:51:02Z</time>
      </trkpt>
      <trkpt lat="48.61404" lon="1.97132">
        <ele>101</ele>
        <time>2025-10-02T08:51:08Z</time>
      </trkpt>
      <trkpt lat="48.61395" lon="1.9714">
        <ele>101</ele>
        <time>2025-10-02T08:51:15Z</time>
      </trkpt>
      <trkpt lat="48.61386" lon="1.97145">
        <ele>101</ele>
        <time>2025-10-02T08:51:22Z</time>
      </trkpt>
      <trkpt lat="48.61376" lon="1.97148">
        <ele>100.9</ele>
        <time>2025-10-02T08:51:29Z</time>
      </trkpt>
      <trkpt lat="48.61367" lon="1.9715">
        <ele>100.7</ele>
        <time>2025-10-02T08:51:34Z</time>
      </trkpt>
      <trkpt lat="48.61357" lon="1.97151">
        <ele>100.5</ele>
        <time>2025-10-02T08:51:41Z</time>
      </trkpt>
      <trkpt lat="48.61347" lon="1.97151">
        <ele>100.3</ele>
        <time>2025-10-02T08:51:47Z</time>
      </trkpt>
      <trkpt lat="48.61338" lon="1.9715">
        <ele>100.1</ele>
        <time>2025-10-02T08:51:54Z</time>
      </trkpt>
      <trkpt lat="48.61329" lon="1.97147">
        <ele>100</ele>
        <time>2025-10-02T08:52:01Z</time>
      </trkpt>
      <trkpt lat="48.6132" lon="1.97145">
        <ele>100</ele>
        <time>2025-10-02T08:52:08Z</time>
      </trkpt>
      <trkpt lat="48.6131" lon="1.97143">
        <ele>100</ele>
        <time>2025-10-02T08:52:15Z</time>
      </trkpt>
      <trkpt lat="48.61301" lon="1.97142">
        <ele>100</ele>
        <time>2025-10-02T08:52:22Z</time>
      </trkpt>
      <trkpt lat="48.61291" lon="1.9714">
        <ele>100</ele>
        <time>2025-10-02T08:52:29Z</time>
      </trkpt>
      <trkpt lat="48.61282" lon="1.97136">
        <ele>100</ele>
        <time>2025-10-02T08:52:37Z</time>
      </trkpt>
      <trkpt lat="48.61272" lon="1.97133">
        <ele>100</ele>
        <time>2025-10-02T08:52:45Z</time>
      </trkpt>
      <trkpt lat="48.61263" lon="1.97134">
        <ele>100.1</ele>
        <time>2025-10-02T08:52:53Z</time>
      </trkpt>
      <trkpt lat="48.61254" lon="1.97136">
        <ele>100.1</ele>
        <time>2025-10-02T08:53:02Z</time>
      </trkpt>
      <trkpt lat="48.61245" lon="1.9714">
        <ele>100.2</ele>
        <time>2025-10-02T08:53:13Z</time>
      </trkpt>
      <trkpt lat="48.61235" lon="1.97142">
        <ele>100.5</ele>
        <time>2025-10-02T08:53:22Z</time>
      </trkpt>
      <trkpt lat="48.61226" lon="1.97146">
        <ele>100.6</ele>
        <time>2025-10-02T08:53:31Z</time>
      </trkpt>
      <trkpt lat="48.61216" lon="1.97147">
        <ele>100.8</ele>
        <time>2025-10-02T08:53:39Z</time>
      </trkpt>
      <trkpt lat="48.61206" lon="1.97147">
        <ele>100.9</ele>
        <time>2025-10-02T08:53:47Z</time>
      </trkpt>
      <trkpt lat="48.61196" lon="1.97148">
        <ele>101</ele>
        <time>2025-10-02T08:53:55Z</time>
      </trkpt>
      <trkpt lat="48.61186" lon="1.97149">
        <ele>101.2</ele>
        <time>2025-10-02T08:54:03Z</time>
      </trkpt>
      <trkpt lat="48.61176" lon="1.97149">
        <ele>101.4</ele>
        <time>2025-10-02T08:54:11Z</time>
      </trkpt>
      <trkpt lat="48.61167" lon="1.9715">
        <ele>101.6</ele>
        <time>2025-10-02T08:54:19Z</time>
      </trkpt>
      <trkpt lat="48.61158" lon="1.97146">
        <ele>101.8</ele>
        <time>2025-10-02T08:54:27Z</time>
      </trkpt>
      <trkpt lat="48.61149" lon="1.97141">
        <ele>102</ele>
        <time>2025-10-02T08:54:35Z</time>
      </trkpt>
      <trkpt lat="48.6114" lon="1.97138">
        <ele>102</ele>
        <time>2025-10-02T08:54:43Z</time>
      </trkpt>
      <trkpt lat="48.6113" lon="1.97138">
        <ele>102</ele>
        <time>2025-10-02T08:54:51Z</time>
      </trkpt>
      <trkpt lat="48.6112" lon="1.9714">
        <ele>102</ele>
        <time>2025-10-02T08:54:59Z</time>
      </trkpt>
      <trkpt lat="48.6111" lon="1.97143">
        <ele>102</ele>
        <time>2025-10-02T08:55:07Z</time>
      </trkpt>
      <trkpt lat="48.611" lon="1.97146">
        <ele>102</ele>
        <time>2025-10-02T08:55:15Z</time>
      </trkpt>
      <trkpt lat="48.6109" lon="1.97151">
        <ele>102</ele>
        <time>2025-10-02T08:55:23Z</time>
      </trkpt>
      <trkpt lat="48.61081" lon="1.97154">
        <ele>102</ele>
        <time>2025-10-02T08:55:31Z</time>
      </trkpt>
      <trkpt lat="48.61072" lon="1.97159">
        <ele>102</ele>
        <time>2025-10-02T08:55:39Z</time>
      </trkpt>
      <trkpt lat="48.61062" lon="1.97162">
        <ele>102</ele>
        <time>2025-10-02T08:55:46Z</time>
      </trkpt>
      <trkpt lat="48.61053" lon="1.97166">
        <ele>102</ele>
        <time>2025-10-02T08:55:53Z</time>
      </trkpt>
      <trkpt lat="48.61045" lon="1.9717">
        <ele>102</ele>
        <time>2025-10-02T08:56:00Z</time>
      </trkpt>
      <trkpt lat="48.61036" lon="1.97174">
        <ele>102</ele>
        <time>2025-10-02T08:56:07Z</time>
      </trkpt>
      <trkpt lat="48.61027" lon="1.97176">
        <ele>102</ele>
        <time>2025-10-02T08:56:14Z</time>
      </trkpt>
      <trkpt lat="48.61018" lon="1.97181">
        <ele>102.3</ele>
        <time>2025-10-02T08:56:21Z</time>
      </trkpt>
      <trkpt lat="48.61013" lon="1.97192">
        <ele>102.5</ele>
        <time>2025-10-02T08:56:29Z</time>
      </trkpt>
      <trkpt lat="48.61003" lon="1.97195">
        <ele>102.9</ele>
        <time>2025-10-02T08:56:46Z</time>
      </trkpt>
      <trkpt lat="48.60995" lon="1.97202">
        <ele>103</ele>
        <time>2025-10-02T08:56:53Z</time>
      </trkpt>
      <trkpt lat="48.60988" lon="1.97211">
        <ele>103</ele>
        <time>2025-10-02T08:57:01Z</time>
      </trkpt>
      <trkpt lat="48.60979" lon="1.97219">
        <ele>103</ele>
        <time>2025-10-02T08:57:09Z</time>
      </trkpt>
      <trkpt lat="48.60972" lon="1.97228">
        <ele>103</ele>
        <time>2025-10-02T08:57:17Z</time>
      </trkpt>
      <trkpt lat="48.60963" lon="1.97235">
        <ele>103</ele>
        <time>2025-10-02T08:57:25Z</time>
      </trkpt>
      <trkpt lat="48.60954" lon="1.97239">
        <ele>103</ele>
        <time>2025-10-02T08:57:49Z</time>
      </trkpt>
      <trkpt lat="48.60945" lon="1.97247">
        <ele>103</ele>
        <time>2025-10-02T08:57:58Z</time>
      </trkpt>
      <trkpt lat="48.60937" lon="1.97254">
        <ele>103</ele>
        <time>2025-10-02T08:58:06Z</time>
      </trkpt>
      <trkpt lat="48.60928" lon="1.97261">
        <ele>103</ele>
        <time>2025-10-02T08:58:14Z</time>
      </trkpt>
      <trkpt lat="48.6092" lon="1.97269">
        <ele>103</ele>
        <time>2025-10-02T08:58:22Z</time>
      </trkpt>
      <trkpt lat="48.60912" lon="1.97278">
        <ele>103</ele>
        <time>2025-10-02T08:58:30Z</time>
      </trkpt>
      <trkpt lat="48.60904" lon="1.97287">
        <ele>103</ele>
        <time>2025-10-02T08:58:37Z</time>
      </trkpt>
      <trkpt lat="48.60897" lon="1.97297">
        <ele>103</ele>
        <time>2025-10-02T08:58:45Z</time>
      </trkpt>
      <trkpt lat="48.6089" lon="1.97308">
        <ele>103</ele>
        <time>2025-10-02T08:58:52Z</time>
      </trkpt>
      <trkpt lat="48.60884" lon="1.97319">
        <ele>103</ele>
        <time>2025-10-02T08:58:59Z</time>
      </trkpt>
      <trkpt lat="48.60878" lon="1.97329">
        <ele>103</ele>
        <time>2025-10-02T08:59:06Z</time>
      </trkpt>
      <trkpt lat="48.60871" lon="1.97339">
        <ele>103</ele>
        <time>2025-10-02T08:59:13Z</time>
      </trkpt>
      <trkpt lat="48.60865" lon="1.97349">
        <ele>103</ele>
        <time>2025-10-02T08:59:20Z</time>
      </trkpt>
      <trkpt lat="48.60858" lon="1.9736">
        <ele>103.1</ele>
        <time>2025-10-02T08:59:27Z</time>
      </trkpt>
      <trkpt lat="48.60851" lon="1.9737">
        <ele>103.3</ele>
        <time>2025-10-02T08:59:34Z</time>
      </trkpt>
      <trkpt lat="48.60844" lon="1.97378">
        <ele>103.6</ele>
        <time>2025-10-02T08:59:41Z</time>
      </trkpt>
      <trkpt lat="48.60837" lon="1.97386">
        <ele>103.9</ele>
        <time>2025-10-02T08:59:48Z</time>
      </trkpt>
      <trkpt lat="48.60829" lon="1.97395">
        <ele>104</ele>
        <time>2025-10-02T08:59:55Z</time>
      </trkpt>
      <trkpt lat="48.60822" lon="1.97403">
        <ele>104</ele>
        <time>2025-10-02T09:00:02Z</time>
      </trkpt>
      <trkpt lat="48.60815" lon="1.97412">
        <ele>104</ele>
        <time>2025-10-02T09:00:09Z</time>
      </trkpt>
      <trkpt lat="48.60808" lon="1.97421">
        <ele>104.1</ele>
        <time>2025-10-02T09:00:16Z</time>
      </trkpt>
      <trkpt lat="48.608" lon="1.97429">
        <ele>104.6</ele>
        <time>2025-10-02T09:00:23Z</time>
      </trkpt>
      <trkpt lat="48.60793" lon="1.97438">
        <ele>104.9</ele>
        <time>2025-10-02T09:00:31Z</time>
      </trkpt>
      <trkpt lat="48.60784" lon="1.97446">
        <ele>105</ele>
        <time>2025-10-02T09:00:39Z</time>
      </trkpt>
      <trkpt lat="48.60775" lon="1.97449">
        <ele>105</ele>
        <time>2025-10-02T09:00:48Z</time>
      </trkpt>
      <trkpt lat="48.60765" lon="1.97445">
        <ele>105</ele>
        <time>2025-10-02T09:00:58Z</time>
      </trkpt>
      <trkpt lat="48.60756" lon="1.97447">
        <ele>105</ele>
        <time>2025-10-02T09:01:06Z</time>
      </trkpt>
      <trkpt lat="48.60748" lon="1.97455">
        <ele>105.1</ele>
        <time>2025-10-02T09:01:17Z</time>
      </trkpt>
      <trkpt lat="48.6074" lon="1.97463">
        <ele>105.4</ele>
        <time>2025-10-02T09:01:27Z</time>
      </trkpt>
      <trkpt lat="48.60731" lon="1.97469">
        <ele>105.7</ele>
        <time>2025-10-02T09:01:34Z</time>
      </trkpt>
      <trkpt lat="48.60722" lon="1.97473">
        <ele>106</ele>
        <time>2025-10-02T09:01:40Z</time>
      </trkpt>
      <trkpt lat="48.60712" lon="1.97479">
        <ele>106</ele>
        <time>2025-10-02T09:01:46Z</time>
      </trkpt>
      <trkpt lat="48.60703" lon="1.97482">
        <ele>106</ele>
        <time>2025-10-02T09:01:53Z</time>
      </trkpt>
      <trkpt lat="48.60694" lon="1.97482">
        <ele>106</ele>
        <time>2025-10-02T09:02:00Z</time>
      </trkpt>
      <trkpt lat="48.60685" lon="1.97478">
        <ele>106.4</ele>
        <time>2025-10-02T09:02:07Z</time>
      </trkpt>
      <trkpt lat="48.60675" lon="1.97475">
        <ele>106.7</ele>
        <time>2025-10-02T09:02:15Z</time>
      </trkpt>
      <trkpt lat="48.60667" lon="1.97468">
        <ele>107</ele>
        <time>2025-10-02T09:02:21Z</time>
      </trkpt>
      <trkpt lat="48.60659" lon="1.97459">
        <ele>107.6</ele>
        <time>2025-10-02T09:02:28Z</time>
      </trkpt>
      <trkpt lat="48.60651" lon="1.97448">
        <ele>108.1</ele>
        <time>2025-10-02T09:02:35Z</time>
      </trkpt>
      <trkpt lat="48.60644" lon="1.97439">
        <ele>108.6</ele>
        <time>2025-10-02T09:02:41Z</time>
      </trkpt>
      <trkpt lat="48.60637" lon="1.97429">
        <ele>109.1</ele>
        <time>2025-10-02T09:02:48Z</time>
      </trkpt>
      <trkpt lat="48.60629" lon="1.9742">
        <ele>109.3</ele>
        <time>2025-10-02T09:02:55Z</time>
      </trkpt>
      <trkpt lat="48.60622" lon="1.97411">
        <ele>109.6</ele>
        <time>2025-10-02T09:03:02Z</time>
      </trkpt>
      <trkpt lat="48.60615" lon="1.97401">
        <ele>109.8</ele>
        <time>2025-10-02T09:03:09Z</time>
      </trkpt>
      <trkpt lat="48.6061" lon="1.97389">
        <ele>110.1</ele>
        <time>2025-10-02T09:03:16Z</time>
      </trkpt>
      <trkpt lat="48.60604" lon="1.97377">
        <ele>110.6</ele>
        <time>2025-10-02T09:03:23Z</time>
      </trkpt>
      <trkpt lat="48.60597" lon="1.97366">
        <ele>110.9</ele>
        <time>2025-10-02T09:03:30Z</time>
      </trkpt>
      <trkpt lat="48.60589" lon="1.9736">
        <ele>111</ele>
        <time>2025-10-02T09:03:37Z</time>
      </trkpt>
      <trkpt lat="48.60581" lon="1.97351">
        <ele>111.4</ele>
        <time>2025-10-02T09:03:44Z</time>
      </trkpt>
      <trkpt lat="48.60573" lon="1.97342">
        <ele>111.8</ele>
        <time>2025-10-02T09:03:51Z</time>
      </trkpt>
      <trkpt lat="48.60565" lon="1.97331">
        <ele>112</ele>
        <time>2025-10-02T09:03:58Z</time>
      </trkpt>
      <trkpt lat="48.60559" lon="1.97322">
        <ele>112</ele>
        <time>2025-10-02T09:04:04Z</time>
      </trkpt>
      <trkpt lat="48.6055" lon="1.97315">
        <ele>112.2</ele>
        <time>2025-10-02T09:04:11Z</time>
      </trkpt>
      <trkpt lat="48.60541" lon="1.9731">
        <ele>112.5</ele>
        <time>2025-10-02T09:04:18Z</time>
      </trkpt>
      <trkpt lat="48.60532" lon="1.97305">
        <ele>112.8</ele>
        <time>2025-10-02T09:04:25Z</time>
      </trkpt>
      <trkpt lat="48.60523" lon="1.973">
        <ele>113</ele>
        <time>2025-10-02T09:04:33Z</time>
      </trkpt>
      <trkpt lat="48.60514" lon="1.97294">
        <ele>113.2</ele>
        <time>2025-10-02T09:04:40Z</time>
      </trkpt>
      <trkpt lat="48.60506" lon="1.97289">
        <ele>113.5</ele>
        <time>2025-10-02T09:04:47Z</time>
      </trkpt>
      <trkpt lat="48.60497" lon="1.97284">
        <ele>113.8</ele>
        <time>2025-10-02T09:04:54Z</time>
      </trkpt>
      <trkpt lat="48.60487" lon="1.97282">
        <ele>113.9</ele>
        <time>2025-10-02T09:05:01Z</time>
      </trkpt>
      <trkpt lat="48.60477" lon="1.97279">
        <ele>114</ele>
        <time>2025-10-02T09:05:08Z</time>
      </trkpt>
      <trkpt lat="48.60467" lon="1.97274">
        <ele>114.3</ele>
        <time>2025-10-02T09:05:15Z</time>
      </trkpt>
      <trkpt lat="48.60459" lon="1.97267">
        <ele>114.9</ele>
        <time>2025-10-02T09:05:22Z</time>
      </trkpt>
      <trkpt lat="48.6045" lon="1.97261">
        <ele>115.4</ele>
        <time>2025-10-02T09:05:29Z</time>
      </trkpt>
      <trkpt lat="48.60441" lon="1.97254">
        <ele>115.9</ele>
        <time>2025-10-02T09:05:36Z</time>
      </trkpt>
      <trkpt lat="48.60433" lon="1.97247">
        <ele>116.1</ele>
        <time>2025-10-02T09:05:42Z</time>
      </trkpt>
      <trkpt lat="48.60425" lon="1.97237">
        <ele>116.5</ele>
        <time>2025-10-02T09:05:49Z</time>
      </trkpt>
      <trkpt lat="48.60418" lon="1.97229">
        <ele>116.7</ele>
        <time>2025-10-02T09:05:55Z</time>
      </trkpt>
      <trkpt lat="48.6041" lon="1.97222">
        <ele>117</ele>
        <time>2025-10-02T09:06:01Z</time>
      </trkpt>
      <trkpt lat="48.60403" lon="1.97213">
        <ele>117.5</ele>
        <time>2025-10-02T09:06:08Z</time>
      </trkpt>
      <trkpt lat="48.60396" lon="1.97204">
        <ele>117.8</ele>
        <time>2025-10-02T09:06:14Z</time>
      </trkpt>
      <trkpt lat="48.60389" lon="1.97193">
        <ele>118.1</ele>
        <time>2025-10-02T09:06:21Z</time>
      </trkpt>
      <trkpt lat="48.60382" lon="1.97182">
        <ele>118.7</ele>
        <time>2025-10-02T09:06:28Z</time>
      </trkpt>
      <trkpt lat="48.60375" lon="1.9717">
        <ele>118.9</ele>
        <time>2025-10-02T09:06:35Z</time>
      </trkpt>
      <trkpt lat="48.60369" lon="1.97159">
        <ele>119</ele>
        <time>2025-10-02T09:06:42Z</time>
      </trkpt>
      <trkpt lat="48.60363" lon="1.97147">
        <ele>118.9</ele>
        <time>2025-10-02T09:06:49Z</time>
      </trkpt>
      <trkpt lat="48.60356" lon="1.97136">
        <ele>119.2</ele>
        <time>2025-10-02T09:06:56Z</time>
      </trkpt>
      <trkpt lat="48.60347" lon="1.97127">
        <ele>119.4</ele>
        <time>2025-10-02T09:07:02Z</time>
      </trkpt>
      <trkpt lat="48.60339" lon="1.9712">
        <ele>119.3</ele>
        <time>2025-10-02T09:07:09Z</time>
      </trkpt>
      <trkpt lat="48.60331" lon="1.97111">
        <ele>119.1</ele>
        <time>2025-10-02T09:07:16Z</time>
      </trkpt>
      <trkpt lat="48.60323" lon="1.97102">
        <ele>119.6</ele>
        <time>2025-10-02T09:07:25Z</time>
      </trkpt>
      <trkpt lat="48.60316" lon="1.97094">
        <ele>119.9</ele>
        <time>2025-10-02T09:07:33Z</time>
      </trkpt>
      <trkpt lat="48.60311" lon="1.9708">
        <ele>120</ele>
        <time>2025-10-02T09:07:41Z</time>
      </trkpt>
      <trkpt lat="48.60308" lon="1.97066">
        <ele>120.1</ele>
        <time>2025-10-02T09:07:49Z</time>
      </trkpt>
      <trkpt lat="48.60304" lon="1.97053">
        <ele>120.1</ele>
        <time>2025-10-02T09:07:56Z</time>
      </trkpt>
      <trkpt lat="48.60301" lon="1.97039">
        <ele>120.2</ele>
        <time>2025-10-02T09:08:05Z</time>
      </trkpt>
      <trkpt lat="48.60297" lon="1.97025">
        <ele>120.4</ele>
        <time>2025-10-02T09:08:14Z</time>
      </trkpt>
      <trkpt lat="48.60295" lon="1.97012">
        <ele>120.7</ele>
        <time>2025-10-02T09:08:23Z</time>
      </trkpt>
      <trkpt lat="48.60291" lon="1.96999">
        <ele>121</ele>
        <time>2025-10-02T09:08:31Z</time>
      </trkpt>
      <trkpt lat="48.60287" lon="1.96987">
        <ele>121.2</ele>
        <time>2025-10-02T09:08:39Z</time>
      </trkpt>
      <trkpt lat="48.60283" lon="1.96975">
        <ele>121.2</ele>
        <time>2025-10-02T09:08:47Z</time>
      </trkpt>
      <trkpt lat="48.60277" lon="1.96962">
        <ele>121.4</ele>
        <time>2025-10-02T09:08:55Z</time>
      </trkpt>
      <trkpt lat="48.60273" lon="1.96948">
        <ele>122.1</ele>
        <time>2025-10-02T09:09:03Z</time>
      </trkpt>
      <trkpt lat="48.60268" lon="1.96936">
        <ele>122.3</ele>
        <time>2025-10-02T09:09:10Z</time>
      </trkpt>
      <trkpt lat="48.60263" lon="1.96925">
        <ele>122.5</ele>
        <time>2025-10-02T09:09:17Z</time>
      </trkpt>
      <trkpt lat="48.60257" lon="1.96913">
        <ele>122.9</ele>
        <time>2025-10-02T09:09:24Z</time>
      </trkpt>
      <trkpt lat="48.60252" lon="1.969">
        <ele>123.5</ele>
        <time>2025-10-02T09:09:31Z</time>
      </trkpt>
      <trkpt lat="48.60248" lon="1.96887">
        <ele>124.1</ele>
        <time>2025-10-02T09:09:39Z</time>
      </trkpt>
      <trkpt lat="48.60244" lon="1.96872">
        <ele>124.4</ele>
        <time>2025-10-02T09:09:47Z</time>
      </trkpt>
      <trkpt lat="48.60239" lon="1.9686">
        <ele>124.8</ele>
        <time>2025-10-02T09:09:54Z</time>
      </trkpt>
      <trkpt lat="48.60235" lon="1.96848">
        <ele>125.3</ele>
        <time>2025-10-02T09:10:01Z</time>
      </trkpt>
      <trkpt lat="48.6023" lon="1.96836">
        <ele>125.7</ele>
        <time>2025-10-02T09:10:08Z</time>
      </trkpt>
      <trkpt lat="48.60227" lon="1.96822">
        <ele>126.3</ele>
        <time>2025-10-02T09:10:16Z</time>
      </trkpt>
      <trkpt lat="48.60223" lon="1.96808">
        <ele>126.9</ele>
        <time>2025-10-02T09:10:24Z</time>
      </trkpt>
      <trkpt lat="48.6022" lon="1.96795">
        <ele>127.1</ele>
        <time>2025-10-02T09:10:31Z</time>
      </trkpt>
      <trkpt lat="48.60217" lon="1.96781">
        <ele>127.4</ele>
        <time>2025-10-02T09:10:38Z</time>
      </trkpt>
      <trkpt lat="48.60214" lon="1.96767">
        <ele>127.6</ele>
        <time>2025-10-02T09:10:45Z</time>
      </trkpt>
      <trkpt lat="48.60212" lon="1.96753">
        <ele>127.8</ele>
        <time>2025-10-02T09:10:52Z</time>
      </trkpt>
      <trkpt lat="48.60209" lon="1.96739">
        <ele>128</ele>
        <time>2025-10-02T09:10:59Z</time>
      </trkpt>
      <trkpt lat="48.60205" lon="1.96725">
        <ele>128.2</ele>
        <time>2025-10-02T09:11:07Z</time>
      </trkpt>
      <trkpt lat="48.60201" lon="1.96711">
        <ele>128.6</ele>
        <time>2025-10-02T09:11:14Z</time>
      </trkpt>
      <trkpt lat="48.60199" lon="1.96696">
        <ele>128.8</ele>
        <time>2025-10-02T09:11:21Z</time>
      </trkpt>
      <trkpt lat="48.60197" lon="1.96682">
        <ele>128.9</ele>
        <time>2025-10-02T09:11:28Z</time>
      </trkpt>
      <trkpt lat="48.60198" lon="1.96667">
        <ele>128.9</ele>
        <time>2025-10-02T09:11:35Z</time>
      </trkpt>
      <trkpt lat="48.60199" lon="1.96653">
        <ele>129.3</ele>
        <time>2025-10-02T09:11:42Z</time>
      </trkpt>
      <trkpt lat="48.60201" lon="1.96639">
        <ele>129.7</ele>
        <time>2025-10-02T09:11:50Z</time>
      </trkpt>
      <trkpt lat="48.60204" lon="1.96625">
        <ele>129.8</ele>
        <time>2025-10-02T09:11:58Z</time>
      </trkpt>
      <trkpt lat="48.60205" lon="1.96611">
        <ele>130</ele>
        <time>2025-10-02T09:12:05Z</time>
      </trkpt>
      <trkpt lat="48.60207" lon="1.96596">
        <ele>130.6</ele>
        <time>2025-10-02T09:12:13Z</time>
      </trkpt>
      <trkpt lat="48.60207" lon="1.96581">
        <ele>131.1</ele>
        <time>2025-10-02T09:12:21Z</time>
      </trkpt>
      <trkpt lat="48.60207" lon="1.96567">
        <ele>131.6</ele>
        <time>2025-10-02T09:12:28Z</time>
      </trkpt>
      <trkpt lat="48.60206" lon="1.96553">
        <ele>132.1</ele>
        <time>2025-10-02T09:12:35Z</time>
      </trkpt>
      <trkpt lat="48.60205" lon="1.96538">
        <ele>132.6</ele>
        <time>2025-10-02T09:12:42Z</time>
      </trkpt>
      <trkpt lat="48.60206" lon="1.96524">
        <ele>133.1</ele>
        <time>2025-10-02T09:12:49Z</time>
      </trkpt>
      <trkpt lat="48.60206" lon="1.9651">
        <ele>133.4</ele>
        <time>2025-10-02T09:12:56Z</time>
      </trkpt>
      <trkpt lat="48.60207" lon="1.96495">
        <ele>133.7</ele>
        <time>2025-10-02T09:13:03Z</time>
      </trkpt>
      <trkpt lat="48.60207" lon="1.9648">
        <ele>134.2</ele>
        <time>2025-10-02T09:13:11Z</time>
      </trkpt>
      <trkpt lat="48.60204" lon="1.96466">
        <ele>134.5</ele>
        <time>2025-10-02T09:13:19Z</time>
      </trkpt>
      <trkpt lat="48.60202" lon="1.96452">
        <ele>134.8</ele>
        <time>2025-10-02T09:13:27Z</time>
      </trkpt>
      <trkpt lat="48.60201" lon="1.96438">
        <ele>135.2</ele>
        <time>2025-10-02T09:13:35Z</time>
      </trkpt>
      <trkpt lat="48.60198" lon="1.96423">
        <ele>135.8</ele>
        <time>2025-10-02T09:13:43Z</time>
      </trkpt>
      <trkpt lat="48.60197" lon="1.96409">
        <ele>136.3</ele>
        <time>2025-10-02T09:13:50Z</time>
      </trkpt>
      <trkpt lat="48.60196" lon="1.96394">
        <ele>136.8</ele>
        <time>2025-10-02T09:13:58Z</time>
      </trkpt>
      <trkpt lat="48.60194" lon="1.96379">
        <ele>137</ele>
        <time>2025-10-02T09:14:06Z</time>
      </trkpt>
      <trkpt lat="48.60189" lon="1.96366">
        <ele>137</ele>
        <time>2025-10-02T09:14:13Z</time>
      </trkpt>
      <trkpt lat="48.60185" lon="1.96353">
        <ele>136.9</ele>
        <time>2025-10-02T09:14:20Z</time>
      </trkpt>
      <trkpt lat="48.60182" lon="1.96338">
        <ele>136.6</ele>
        <time>2025-10-02T09:14:27Z</time>
      </trkpt>
      <trkpt lat="48.60181" lon="1.96323">
        <ele>136.5</ele>
        <time>2025-10-02T09:14:33Z</time>
      </trkpt>
      <trkpt lat="48.60179" lon="1.9631">
        <ele>136.4</ele>
        <time>2025-10-02T09:14:39Z</time>
      </trkpt>
      <trkpt lat="48.60175" lon="1.96297">
        <ele>136.1</ele>
        <time>2025-10-02T09:14:46Z</time>
      </trkpt>
      <trkpt lat="48.60169" lon="1.96285">
        <ele>135.4</ele>
        <time>2025-10-02T09:14:53Z</time>
      </trkpt>
      <trkpt lat="48.60164" lon="1.96273">
        <ele>134.7</ele>
        <time>2025-10-02T09:15:00Z</time>
      </trkpt>
      <trkpt lat="48.60157" lon="1.96262">
        <ele>133.9</ele>
        <time>2025-10-02T09:15:08Z</time>
      </trkpt>
      <trkpt lat="48.60151" lon="1.9625">
        <ele>132.9</ele>
        <time>2025-10-02T09:15:16Z</time>
      </trkpt>
      <trkpt lat="48.60147" lon="1.96237">
        <ele>131.7</ele>
        <time>2025-10-02T09:15:23Z</time>
      </trkpt>
      <trkpt lat="48.60148" lon="1.96222">
        <ele>130.7</ele>
        <time>2025-10-02T09:15:30Z</time>
      </trkpt>
      <trkpt lat="48.6015" lon="1.96208">
        <ele>130.1</ele>
        <time>2025-10-02T09:15:37Z</time>
      </trkpt>
      <trkpt lat="48.60151" lon="1.96193">
        <ele>129.4</ele>
        <time>2025-10-02T09:15:44Z</time>
      </trkpt>
      <trkpt lat="48.60152" lon="1.96179">
        <ele>129.2</ele>
        <time>2025-10-02T09:15:50Z</time>
      </trkpt>
      <trkpt lat="48.60152" lon="1.96163">
        <ele>128.9</ele>
        <time>2025-10-02T09:15:57Z</time>
      </trkpt>
      <trkpt lat="48.60152" lon="1.96149">
        <ele>128.3</ele>
        <time>2025-10-02T09:16:03Z</time>
      </trkpt>
      <trkpt lat="48.60152" lon="1.96134">
        <ele>127.8</ele>
        <time>2025-10-02T09:16:08Z</time>
      </trkpt>
      <trkpt lat="48.60152" lon="1.96119">
        <ele>127.2</ele>
        <time>2025-10-02T09:16:15Z</time>
      </trkpt>
      <trkpt lat="48.60152" lon="1.96104">
        <ele>126.7</ele>
        <time>2025-10-02T09:16:22Z</time>
      </trkpt>
      <trkpt lat="48.60153" lon="1.9609">
        <ele>126.2</ele>
        <time>2025-10-02T09:16:30Z</time>
      </trkpt>
      <trkpt lat="48.60152" lon="1.96075">
        <ele>125.5</ele>
        <time>2025-10-02T09:16:37Z</time>
      </trkpt>
      <trkpt lat="48.60152" lon="1.9606">
        <ele>124.7</ele>
        <time>2025-10-02T09:16:46Z</time>
      </trkpt>
      <trkpt lat="48.60151" lon="1.96045">
        <ele>123.9</ele>
        <time>2025-10-02T09:16:54Z</time>
      </trkpt>
      <trkpt lat="48.60154" lon="1.9603">
        <ele>123.8</ele>
        <time>2025-10-02T09:17:00Z</time>
      </trkpt>
      <trkpt lat="48.60159" lon="1.96018">
        <ele>123.8</ele>
        <time>2025-10-02T09:17:07Z</time>
      </trkpt>
      <trkpt lat="48.60165" lon="1.96006">
        <ele>124</ele>
        <time>2025-10-02T09:17:14Z</time>
      </trkpt>
      <trkpt lat="48.60172" lon="1.95996">
        <ele>124.2</ele>
        <time>2025-10-02T09:17:21Z</time>
      </trkpt>
      <trkpt lat="48.60178" lon="1.95985">
        <ele>123.4</ele>
        <time>2025-10-02T09:17:28Z</time>
      </trkpt>
      <trkpt lat="48.60184" lon="1.95973">
        <ele>122.4</ele>
        <time>2025-10-02T09:17:35Z</time>
      </trkpt>
      <trkpt lat="48.6019" lon="1.95962">
        <ele>121.9</ele>
        <time>2025-10-02T09:17:41Z</time>
      </trkpt>
      <trkpt lat="48.60195" lon="1.95951">
        <ele>121.4</ele>
        <time>2025-10-02T09:17:47Z</time>
      </trkpt>
      <trkpt lat="48.60201" lon="1.95938">
        <ele>120.1</ele>
        <time>2025-10-02T09:17:54Z</time>
      </trkpt>
      <trkpt lat="48.60208" lon="1.95929">
        <ele>118.8</ele>
        <time>2025-10-02T09:18:00Z</time>
      </trkpt>
      <trkpt lat="48.60213" lon="1.95917">
        <ele>117.4</ele>
        <time>2025-10-02T09:18:06Z</time>
      </trkpt>
      <trkpt lat="48.6022" lon="1.95905">
        <ele>116.2</ele>
        <time>2025-10-02T09:18:13Z</time>
      </trkpt>
      <trkpt lat="48.60225" lon="1.95892">
        <ele>115.1</ele>
        <time>2025-10-02T09:18:20Z</time>
      </trkpt>
      <trkpt lat="48.60228" lon="1.95878">
        <ele>114.4</ele>
        <time>2025-10-02T09:18:35Z</time>
      </trkpt>
      <trkpt lat="48.60236" lon="1.95869">
        <ele>113.8</ele>
        <time>2025-10-02T09:18:48Z</time>
      </trkpt>
      <trkpt lat="48.60242" lon="1.95857">
        <ele>113.3</ele>
        <time>2025-10-02T09:18:56Z</time>
      </trkpt>
      <trkpt lat="48.60248" lon="1.95846">
        <ele>113</ele>
        <time>2025-10-02T09:19:03Z</time>
      </trkpt>
      <trkpt lat="48.60253" lon="1.95835">
        <ele>112.9</ele>
        <time>2025-10-02T09:19:10Z</time>
      </trkpt>
      <trkpt lat="48.60258" lon="1.95824">
        <ele>112.4</ele>
        <time>2025-10-02T09:19:16Z</time>
      </trkpt>
      <trkpt lat="48.60263" lon="1.95812">
        <ele>111.8</ele>
        <time>2025-10-02T09:19:22Z</time>
      </trkpt>
      <trkpt lat="48.60268" lon="1.95799">
        <ele>111.3</ele>
        <time>2025-10-02T09:19:28Z</time>
      </trkpt>
      <trkpt lat="48.60277" lon="1.95795">
        <ele>111</ele>
        <time>2025-10-02T09:19:35Z</time>
      </trkpt>
      <trkpt lat="48.60286" lon="1.95799">
        <ele>110.9</ele>
        <time>2025-10-02T09:19:41Z</time>
      </trkpt>
      <trkpt lat="48.60296" lon="1.95805">
        <ele>111</ele>
        <time>2025-10-02T09:19:47Z</time>
      </trkpt>
      <trkpt lat="48.60304" lon="1.95813">
        <ele>111</ele>
        <time>2025-10-02T09:19:54Z</time>
      </trkpt>
      <trkpt lat="48.60309" lon="1.95825">
        <ele>111</ele>
        <time>2025-10-02T09:20:00Z</time>
      </trkpt>
      <trkpt lat="48.60317" lon="1.95832">
        <ele>111</ele>
        <time>2025-10-02T09:20:07Z</time>
      </trkpt>
      <trkpt lat="48.60327" lon="1.95836">
        <ele>111.1</ele>
        <time>2025-10-02T09:20:14Z</time>
      </trkpt>
      <trkpt lat="48.60337" lon="1.95833">
        <ele>110.9</ele>
        <time>2025-10-02T09:20:21Z</time>
      </trkpt>
      <trkpt lat="48.60346" lon="1.95829">
        <ele>110.5</ele>
        <time>2025-10-02T09:20:28Z</time>
      </trkpt>
      <trkpt lat="48.60354" lon="1.95838">
        <ele>110.4</ele>
        <time>2025-10-02T09:20:53Z</time>
      </trkpt>
      <trkpt lat="48.60348" lon="1.95849">
        <ele>111</ele>
        <time>2025-10-02T09:21:01Z</time>
      </trkpt>
      <trkpt lat="48.60354" lon="1.95861">
        <ele>111.2</ele>
        <time>2025-10-02T09:21:15Z</time>
      </trkpt>
      <trkpt lat="48.60364" lon="1.95863">
        <ele>111.1</ele>
        <time>2025-10-02T09:21:23Z</time>
      </trkpt>
      <trkpt lat="48.60373" lon="1.95863">
        <ele>111.1</ele>
        <time>2025-10-02T09:21:30Z</time>
      </trkpt>
      <trkpt lat="48.60383" lon="1.95864">
        <ele>111.1</ele>
        <time>2025-10-02T09:21:36Z</time>
      </trkpt>
      <trkpt lat="48.60393" lon="1.95867">
        <ele>111.1</ele>
        <time>2025-10-02T09:21:43Z</time>
      </trkpt>
      <trkpt lat="48.60404" lon="1.95868">
        <ele>110.8</ele>
        <time>2025-10-02T09:21:50Z</time>
      </trkpt>
      <trkpt lat="48.60413" lon="1.9587">
        <ele>110.7</ele>
        <time>2025-10-02T09:21:56Z</time>
      </trkpt>
      <trkpt lat="48.60422" lon="1.95872">
        <ele>110.6</ele>
        <time>2025-10-02T09:22:03Z</time>
      </trkpt>
      <trkpt lat="48.60432" lon="1.95874">
        <ele>110.4</ele>
        <time>2025-10-02T09:22:10Z</time>
      </trkpt>
      <trkpt lat="48.60442" lon="1.95875">
        <ele>110.1</ele>
        <time>2025-10-02T09:22:17Z</time>
      </trkpt>
      <trkpt lat="48.60452" lon="1.95872">
        <ele>109.8</ele>
        <time>2025-10-02T09:22:25Z</time>
      </trkpt>
      <trkpt lat="48.6046" lon="1.95878">
        <ele>110.2</ele>
        <time>2025-10-02T09:22:31Z</time>
      </trkpt>
      <trkpt lat="48.60469" lon="1.95882">
        <ele>110.5</ele>
        <time>2025-10-02T09:22:38Z</time>
      </trkpt>
      <trkpt lat="48.60479" lon="1.95886">
        <ele>110.3</ele>
        <time>2025-10-02T09:22:45Z</time>
      </trkpt>
      <trkpt lat="48.60488" lon="1.95891">
        <ele>110</ele>
        <time>2025-10-02T09:22:52Z</time>
      </trkpt>
      <trkpt lat="48.60498" lon="1.95895">
        <ele>109.6</ele>
        <time>2025-10-02T09:22:59Z</time>
      </trkpt>
      <trkpt lat="48.60507" lon="1.95901">
        <ele>109.6</ele>
        <time>2025-10-02T09:23:06Z</time>
      </trkpt>
      <trkpt lat="48.60515" lon="1.9591">
        <ele>110</ele>
        <time>2025-10-02T09:23:13Z</time>
      </trkpt>
      <trkpt lat="48.60521" lon="1.95919">
        <ele>110.4</ele>
        <time>2025-10-02T09:23:20Z</time>
      </trkpt>
      <trkpt lat="48.60529" lon="1.95926">
        <ele>110.2</ele>
        <time>2025-10-02T09:23:27Z</time>
      </trkpt>
      <trkpt lat="48.60536" lon="1.95934">
        <ele>110</ele>
        <time>2025-10-02T09:23:33Z</time>
      </trkpt>
      <trkpt lat="48.60545" lon="1.95943">
        <ele>109.7</ele>
        <time>2025-10-02T09:23:40Z</time>
      </trkpt>
      <trkpt lat="48.60554" lon="1.95948">
        <ele>109.4</ele>
        <time>2025-10-02T09:23:47Z</time>
      </trkpt>
      <trkpt lat="48.60563" lon="1.95955">
        <ele>109.3</ele>
        <time>2025-10-02T09:23:54Z</time>
      </trkpt>
      <trkpt lat="48.6057" lon="1.95962">
        <ele>109.1</ele>
        <time>2025-10-02T09:24:00Z</time>
      </trkpt>
      <trkpt lat="48.60579" lon="1.95972">
        <ele>108.5</ele>
        <time>2025-10-02T09:24:07Z</time>
      </trkpt>
      <trkpt lat="48.60586" lon="1.95982">
        <ele>108.6</ele>
        <time>2025-10-02T09:24:14Z</time>
      </trkpt>
      <trkpt lat="48.60595" lon="1.95989">
        <ele>108.7</ele>
        <time>2025-10-02T09:24:21Z</time>
      </trkpt>
      <trkpt lat="48.60603" lon="1.95998">
        <ele>109.1</ele>
        <time>2025-10-02T09:24:28Z</time>
      </trkpt>
      <trkpt lat="48.60612" lon="1.96005">
        <ele>109.3</ele>
        <time>2025-10-02T09:24:35Z</time>
      </trkpt>
      <trkpt lat="48.6062" lon="1.96011">
        <ele>109.8</ele>
        <time>2025-10-02T09:24:42Z</time>
      </trkpt>
      <trkpt lat="48.6063" lon="1.96015">
        <ele>110.1</ele>
        <time>2025-10-02T09:24:50Z</time>
      </trkpt>
      <trkpt lat="48.60639" lon="1.96014">
        <ele>110</ele>
        <time>2025-10-02T09:24:58Z</time>
      </trkpt>
      <trkpt lat="48.60646" lon="1.96004">
        <ele>109.3</ele>
        <time>2025-10-02T09:25:04Z</time>
      </trkpt>
      <trkpt lat="48.60655" lon="1.95999">
        <ele>108.9</ele>
        <time>2025-10-02T09:25:11Z</time>
      </trkpt>
      <trkpt lat="48.60664" lon="1.95993">
        <ele>108.5</ele>
        <time>2025-10-02T09:25:18Z</time>
      </trkpt>
      <trkpt lat="48.60669" lon="1.95981">
        <ele>107.6</ele>
        <time>2025-10-02T09:25:26Z</time>
      </trkpt>
      <trkpt lat="48.60672" lon="1.95967">
        <ele>107</ele>
        <time>2025-10-02T09:25:34Z</time>
      </trkpt>
      <trkpt lat="48.60672" lon="1.95952">
        <ele>107</ele>
        <time>2025-10-02T09:25:42Z</time>
      </trkpt>
      <trkpt lat="48.60669" lon="1.95939">
        <ele>107</ele>
        <time>2025-10-02T09:25:52Z</time>
      </trkpt>
      <trkpt lat="48.60664" lon="1.95926">
        <ele>107</ele>
        <time>2025-10-02T09:26:02Z</time>
      </trkpt>
      <trkpt lat="48.60668" lon="1.95913">
        <ele>107</ele>
        <time>2025-10-02T09:26:09Z</time>
      </trkpt>
      <trkpt lat="48.60674" lon="1.95902">
        <ele>107</ele>
        <time>2025-10-02T09:26:14Z</time>
      </trkpt>
      <trkpt lat="48.60682" lon="1.95892">
        <ele>107</ele>
        <time>2025-10-02T09:26:20Z</time>
      </trkpt>
      <trkpt lat="48.60688" lon="1.9588">
        <ele>107</ele>
        <time>2025-10-02T09:26:26Z</time>
      </trkpt>
      <trkpt lat="48.60693" lon="1.95867">
        <ele>107</ele>
        <time>2025-10-02T09:26:33Z</time>
      </trkpt>
      <trkpt lat="48.60696" lon="1.95853">
        <ele>106.9</ele>
        <time>2025-10-02T09:26:40Z</time>
      </trkpt>
      <trkpt lat="48.60696" lon="1.95838">
        <ele>106.9</ele>
        <time>2025-10-02T09:26:46Z</time>
      </trkpt>
      <trkpt lat="48.60694" lon="1.95824">
        <ele>107</ele>
        <time>2025-10-02T09:26:53Z</time>
      </trkpt>
      <trkpt lat="48.60693" lon="1.95809">
        <ele>107.1</ele>
        <time>2025-10-02T09:27:00Z</time>
      </trkpt>
      <trkpt lat="48.60696" lon="1.95794">
        <ele>107.4</ele>
        <time>2025-10-02T09:27:07Z</time>
      </trkpt>
      <trkpt lat="48.607" lon="1.9578">
        <ele>107.7</ele>
        <time>2025-10-02T09:27:13Z</time>
      </trkpt>
      <trkpt lat="48.60703" lon="1.95766">
        <ele>107.7</ele>
        <time>2025-10-02T09:27:20Z</time>
      </trkpt>
      <trkpt lat="48.60699" lon="1.95752">
        <ele>107.8</ele>
        <time>2025-10-02T09:27:26Z</time>
      </trkpt>
      <trkpt lat="48.60692" lon="1.95741">
        <ele>108</ele>
        <time>2025-10-02T09:27:33Z</time>
      </trkpt>
      <trkpt lat="48.60689" lon="1.95727">
        <ele>108</ele>
        <time>2025-10-02T09:27:40Z</time>
      </trkpt>
      <trkpt lat="48.60687" lon="1.95714">
        <ele>108</ele>
        <time>2025-10-02T09:27:47Z</time>
      </trkpt>
      <trkpt lat="48.60686" lon="1.957">
        <ele>108</ele>
        <time>2025-10-02T09:27:53Z</time>
      </trkpt>
      <trkpt lat="48.60686" lon="1.95684">
        <ele>108</ele>
        <time>2025-10-02T09:28:00Z</time>
      </trkpt>
      <trkpt lat="48.60686" lon="1.95669">
        <ele>108</ele>
        <time>2025-10-02T09:28:07Z</time>
      </trkpt>
      <trkpt lat="48.60681" lon="1.95657">
        <ele>107.8</ele>
        <time>2025-10-02T09:28:13Z</time>
      </trkpt>
      <trkpt lat="48.60671" lon="1.95656">
        <ele>107.9</ele>
        <time>2025-10-02T09:28:20Z</time>
      </trkpt>
      <trkpt lat="48.60662" lon="1.95654">
        <ele>108</ele>
        <time>2025-10-02T09:28:26Z</time>
      </trkpt>
      <trkpt lat="48.60653" lon="1.95653">
        <ele>108</ele>
        <time>2025-10-02T09:28:33Z</time>
      </trkpt>
      <trkpt lat="48.60645" lon="1.95643">
        <ele>108</ele>
        <time>2025-10-02T09:28:40Z</time>
      </trkpt>
      <trkpt lat="48.60636" lon="1.95641">
        <ele>108</ele>
        <time>2025-10-02T09:28:46Z</time>
      </trkpt>
      <trkpt lat="48.60629" lon="1.95632">
        <ele>108</ele>
        <time>2025-10-02T09:28:52Z</time>
      </trkpt>
      <trkpt lat="48.60625" lon="1.95617">
        <ele>108</ele>
        <time>2025-10-02T09:28:58Z</time>
      </trkpt>
      <trkpt lat="48.60619" lon="1.95605">
        <ele>108</ele>
        <time>2025-10-02T09:29:05Z</time>
      </trkpt>
      <trkpt lat="48.60611" lon="1.95598">
        <ele>108</ele>
        <time>2025-10-02T09:29:11Z</time>
      </trkpt>
      <trkpt lat="48.60604" lon="1.95588">
        <ele>108.2</ele>
        <time>2025-10-02T09:29:17Z</time>
      </trkpt>
      <trkpt lat="48.60599" lon="1.95575">
        <ele>108.4</ele>
        <time>2025-10-02T09:29:24Z</time>
      </trkpt>
      <trkpt lat="48.60603" lon="1.95561">
        <ele>108.3</ele>
        <time>2025-10-02T09:29:30Z</time>
      </trkpt>
      <trkpt lat="48.60602" lon="1.95546">
        <ele>108.5</ele>
        <time>2025-10-02T09:29:36Z</time>
      </trkpt>
      <trkpt lat="48.60601" lon="1.95531">
        <ele>108.9</ele>
        <time>2025-10-02T09:29:43Z</time>
      </trkpt>
      <trkpt lat="48.60601" lon="1.95517">
        <ele>109</ele>
        <time>2025-10-02T09:29:50Z</time>
      </trkpt>
      <trkpt lat="48.60601" lon="1.95502">
        <ele>109</ele>
        <time>2025-10-02T09:29:57Z</time>
      </trkpt>
      <trkpt lat="48.606" lon="1.95487">
        <ele>109</ele>
        <time>2025-10-02T09:30:04Z</time>
      </trkpt>
      <trkpt lat="48.60598" lon="1.95474">
        <ele>109</ele>
        <time>2025-10-02T09:30:11Z</time>
      </trkpt>
      <trkpt lat="48.60594" lon="1.9546">
        <ele>109</ele>
        <time>2025-10-02T09:30:18Z</time>
      </trkpt>
      <trkpt lat="48.60591" lon="1.95445">
        <ele>109</ele>
        <time>2025-10-02T09:30:25Z</time>
      </trkpt>
      <trkpt lat="48.60588" lon="1.9543">
        <ele>109</ele>
        <time>2025-10-02T09:30:32Z</time>
      </trkpt>
      <trkpt lat="48.60585" lon="1.95416">
        <ele>109</ele>
        <time>2025-10-02T09:30:39Z</time>
      </trkpt>
      <trkpt lat="48.60583" lon="1.95402">
        <ele>109</ele>
        <time>2025-10-02T09:30:46Z</time>
      </trkpt>
      <trkpt lat="48.60588" lon="1.9539">
        <ele>109</ele>
        <time>2025-10-02T09:30:55Z</time>
      </trkpt>
      <trkpt lat="48.60583" lon="1.95378">
        <ele>109</ele>
        <time>2025-10-02T09:31:02Z</time>
      </trkpt>
      <trkpt lat="48.60582" lon="1.95364">
        <ele>109</ele>
        <time>2025-10-02T09:31:08Z</time>
      </trkpt>
      <trkpt lat="48.60579" lon="1.95352">
        <ele>109.5</ele>
        <time>2025-10-02T09:31:14Z</time>
      </trkpt>
      <trkpt lat="48.60575" lon="1.95338">
        <ele>109.9</ele>
        <time>2025-10-02T09:31:21Z</time>
      </trkpt>
      <trkpt lat="48.60572" lon="1.95324">
        <ele>110</ele>
        <time>2025-10-02T09:31:28Z</time>
      </trkpt>
      <trkpt lat="48.60569" lon="1.95311">
        <ele>110</ele>
        <time>2025-10-02T09:31:35Z</time>
      </trkpt>
      <trkpt lat="48.60568" lon="1.95295">
        <ele>110.2</ele>
        <time>2025-10-02T09:31:43Z</time>
      </trkpt>
      <trkpt lat="48.60568" lon="1.95281">
        <ele>110.5</ele>
        <time>2025-10-02T09:31:50Z</time>
      </trkpt>
      <trkpt lat="48.60569" lon="1.95266">
        <ele>110.7</ele>
        <time>2025-10-02T09:31:57Z</time>
      </trkpt>
      <trkpt lat="48.6057" lon="1.95252">
        <ele>111</ele>
        <time>2025-10-02T09:32:03Z</time>
      </trkpt>
      <trkpt lat="48.60571" lon="1.95238">
        <ele>111</ele>
        <time>2025-10-02T09:32:10Z</time>
      </trkpt>
      <trkpt lat="48.60571" lon="1.95223">
        <ele>111</ele>
        <time>2025-10-02T09:32:17Z</time>
      </trkpt>
      <trkpt lat="48.60569" lon="1.95208">
        <ele>111</ele>
        <time>2025-10-02T09:32:25Z</time>
      </trkpt>
      <trkpt lat="48.60568" lon="1.95193">
        <ele>111</ele>
        <time>2025-10-02T09:32:32Z</time>
      </trkpt>
      <trkpt lat="48.60568" lon="1.95178">
        <ele>111</ele>
        <time>2025-10-02T09:32:39Z</time>
      </trkpt>
      <trkpt lat="48.60578" lon="1.95184">
        <ele>111</ele>
        <time>2025-10-02T09:32:47Z</time>
      </trkpt>
      <trkpt lat="48.60582" lon="1.95172">
        <ele>111</ele>
        <time>2025-10-02T09:32:53Z</time>
      </trkpt>
      <trkpt lat="48.60585" lon="1.95159">
        <ele>111</ele>
        <time>2025-10-02T09:32:59Z</time>
      </trkpt>
      <trkpt lat="48.60589" lon="1.95146">
        <ele>111</ele>
        <time>2025-10-02T09:33:06Z</time>
      </trkpt>
      <trkpt lat="48.60595" lon="1.95135">
        <ele>111</ele>
        <time>2025-10-02T09:33:13Z</time>
      </trkpt>
      <trkpt lat="48.606" lon="1.95124">
        <ele>111</ele>
        <time>2025-10-02T09:33:20Z</time>
      </trkpt>
      <trkpt lat="48.60606" lon="1.95113">
        <ele>111</ele>
        <time>2025-10-02T09:33:27Z</time>
      </trkpt>
      <trkpt lat="48.6061" lon="1.951">
        <ele>111</ele>
        <time>2025-10-02T09:33:33Z</time>
      </trkpt>
      <trkpt lat="48.60616" lon="1.95088">
        <ele>111</ele>
        <time>2025-10-02T09:33:40Z</time>
      </trkpt>
      <trkpt lat="48.60621" lon="1.95075">
        <ele>111</ele>
        <time>2025-10-02T09:33:47Z</time>
      </trkpt>
      <trkpt lat="48.60627" lon="1.95062">
        <ele>111</ele>
        <time>2025-10-02T09:33:54Z</time>
      </trkpt>
      <trkpt lat="48.60631" lon="1.95074">
        <ele>111</ele>
        <time>2025-10-02T09:34:07Z</time>
      </trkpt>
      <trkpt lat="48.60634" lon="1.95059">
        <ele>111</ele>
        <time>2025-10-02T09:34:17Z</time>
      </trkpt>
      <trkpt lat="48.60638" lon="1.95045">
        <ele>111</ele>
        <time>2025-10-02T09:34:24Z</time>
      </trkpt>
      <trkpt lat="48.60643" lon="1.95034">
        <ele>111</ele>
        <time>2025-10-02T09:34:31Z</time>
      </trkpt>
      <trkpt lat="48.60649" lon="1.95023">
        <ele>111</ele>
        <time>2025-10-02T09:34:39Z</time>
      </trkpt>
      <trkpt lat="48.60655" lon="1.95012">
        <ele>111</ele>
        <time>2025-10-02T09:34:47Z</time>
      </trkpt>
      <trkpt lat="48.6066" lon="1.94999">
        <ele>111</ele>
        <time>2025-10-02T09:34:55Z</time>
      </trkpt>
      <trkpt lat="48.60666" lon="1.94987">
        <ele>111</ele>
        <time>2025-10-02T09:35:03Z</time>
      </trkpt>
      <trkpt lat="48.6067" lon="1.94975">
        <ele>111</ele>
        <time>2025-10-02T09:35:13Z</time>
      </trkpt>
      <trkpt lat="48.60676" lon="1.94963">
        <ele>111</ele>
        <time>2025-10-02T09:35:28Z</time>
      </trkpt>
    </trkseg>
  </trk>
</gpx>